<?xml version='1.0' encoding='UTF-8'?><gpx version="1.1" creator="JPX - https://github.com/jenetics/jpx" xmlns="http://www.topografix.com/GPX/1/1"><trk><trkseg><trkpt lat="45.95126261845093" lon="12.414172337081048"><ele>58.0</ele><time>2026-04-28T17:47:57.969Z</time></trkpt><trkpt lat="45.9512075540509" lon="12.414246897698659"><ele>58.0</ele><time>2026-04-28T17:47:59.987Z</time></trkpt><trkpt lat="45.95116287011949" lon="12.414373066347947"><ele>58.0</ele><time>2026-04-28T17:48:01.988Z</time></trkpt><trkpt lat="45.951111721478895" lon="12.414507633490661"><ele>58.0</ele><time>2026-04-28T17:48:03.99Z</time></trkpt><trkpt lat="45.951026619013675" lon="12.414663978916336"><ele>58.0</ele><time>2026-04-28T17:48:05.991Z</time></trkpt><trkpt lat="45.950954144148184" lon="12.41484234079963"><ele>58.0</ele><time>2026-04-28T17:48:06.992Z</time></trkpt><trkpt lat="45.95091357421438" lon="12.415004603596037"><ele>58.0</ele><time>2026-04-28T17:48:07.992Z</time></trkpt><trkpt lat="45.95095699831002" lon="12.415137176578694"><ele>58.0</ele><time>2026-04-28T17:48:08.993Z</time></trkpt><trkpt lat="45.95097867961413" lon="12.415238794718725"><ele>58.0</ele><time>2026-04-28T17:48:09.993Z</time></trkpt><trkpt lat="45.95093889252653" lon="12.415360742312474"><ele>58.0</ele><time>2026-04-28T17:48:11.994Z</time></trkpt><trkpt lat="45.95087540086588" lon="12.415429113118945"><ele>57.666666666666664</ele><time>2026-04-28T17:48:12.995Z</time></trkpt><trkpt lat="45.950782474131216" lon="12.415551284486988"><ele>57.33333333333333</ele><time>2026-04-28T17:48:13.995Z</time></trkpt><trkpt lat="45.950599086337206" lon="12.415667845288269"><ele>57.0</ele><time>2026-04-28T17:48:14.995Z</time></trkpt><trkpt lat="45.950478606052855" lon="12.415778875669723"><ele>57.0</ele><time>2026-04-28T17:48:15.996Z</time></trkpt><trkpt lat="45.95036104099923" lon="12.415887219477453"><ele>57.0</ele><time>2026-04-28T17:48:16.996Z</time></trkpt><trkpt lat="45.9502495245096" lon="12.415989989141046"><ele>57.0</ele><time>2026-04-28T17:48:17.996Z</time></trkpt><trkpt lat="45.950162160642954" lon="12.416073134086998"><ele>57.0</ele><time>2026-04-28T17:48:18.996Z</time></trkpt><trkpt lat="45.950071791572505" lon="12.416163423042484"><ele>57.0</ele><time>2026-04-28T17:48:19.997Z</time></trkpt><trkpt lat="45.94999780241352" lon="12.416216040934012"><ele>57.0</ele><time>2026-04-28T17:48:20.997Z</time></trkpt><trkpt lat="45.94991852656092" lon="12.416118247180831"><ele>57.0</ele><time>2026-04-28T17:48:22.997Z</time></trkpt><trkpt lat="45.949852050494286" lon="12.416065978647527"><ele>57.0</ele><time>2026-04-28T17:48:23.998Z</time></trkpt><trkpt lat="45.94965979507352" lon="12.416383480840125"><ele>57.0</ele><time>2026-04-28T17:48:25.998Z</time></trkpt><trkpt lat="45.949610705853665" lon="12.416543336142045"><ele>57.0</ele><time>2026-04-28T17:48:26.998Z</time></trkpt><trkpt lat="45.94957270632785" lon="12.416666764708964"><ele>57.0</ele><time>2026-04-28T17:48:31.999Z</time></trkpt><trkpt lat="45.94963264208053" lon="12.41689400398163"><ele>57.0</ele><time>2026-04-28T17:48:32.999Z</time></trkpt><trkpt lat="45.94960014281231" lon="12.41708833943144"><ele>57.0</ele><time>2026-04-28T17:48:33.999Z</time></trkpt><trkpt lat="45.94955055526968" lon="12.417198363917558"><ele>57.0</ele><time>2026-04-28T17:48:34.999Z</time></trkpt><trkpt lat="45.94945559938932" lon="12.417293293104102"><ele>57.0</ele><time>2026-04-28T17:48:35.999Z</time></trkpt><trkpt lat="45.94937373287003" lon="12.417428505441876"><ele>57.0</ele><time>2026-04-28T17:48:36.999Z</time></trkpt><trkpt lat="45.94930275800739" lon="12.417566349319754"><ele>57.0</ele><time>2026-04-28T17:48:37.999Z</time></trkpt><trkpt lat="45.94923612335463" lon="12.417669136450531"><ele>57.0</ele><time>2026-04-28T17:48:38.999Z</time></trkpt><trkpt lat="45.94918687161196" lon="12.41778682693942"><ele>57.0</ele><time>2026-04-28T17:48:39.999Z</time></trkpt><trkpt lat="45.94909428984557" lon="12.417932864882609"><ele>57.0</ele><time>2026-04-28T17:48:40.999Z</time></trkpt><trkpt lat="45.94899292300271" lon="12.41812179709103"><ele>56.66666666666667</ele><time>2026-04-28T17:48:41.999Z</time></trkpt><trkpt lat="45.9489237220905" lon="12.418352542855857"><ele>56.333333333333336</ele><time>2026-04-28T17:48:42.999Z</time></trkpt><trkpt lat="45.94888439765226" lon="12.418618067584037"><ele>56.0</ele><time>2026-04-28T17:48:43.999Z</time></trkpt><trkpt lat="45.94884341099043" lon="12.418862504362114"><ele>55.0</ele><time>2026-04-28T17:48:44.999Z</time></trkpt><trkpt lat="45.94878629029083" lon="12.419076396188112"><ele>54.0</ele><time>2026-04-28T17:48:46Z</time></trkpt><trkpt lat="45.94869118433631" lon="12.41928038639403"><ele>53.0</ele><time>2026-04-28T17:48:47Z</time></trkpt><trkpt lat="45.94858935367768" lon="12.419487029639894"><ele>53.0</ele><time>2026-04-28T17:48:48Z</time></trkpt><trkpt lat="45.94847164477016" lon="12.419702529681524"><ele>53.0</ele><time>2026-04-28T17:48:49Z</time></trkpt><trkpt lat="45.94836289407743" lon="12.419907029982927"><ele>53.0</ele><time>2026-04-28T17:48:50Z</time></trkpt><trkpt lat="45.94829141936494" lon="12.420076184325024"><ele>53.2</ele><time>2026-04-28T17:48:51Z</time></trkpt><trkpt lat="45.948208720068784" lon="12.420217696229438"><ele>53.4</ele><time>2026-04-28T17:48:52Z</time></trkpt><trkpt lat="45.948148078729766" lon="12.420352246328395"><ele>53.60000000000001</ele><time>2026-04-28T17:48:53Z</time></trkpt><trkpt lat="45.94812635878078" lon="12.420486290626304"><ele>53.800000000000004</ele><time>2026-04-28T17:48:54Z</time></trkpt><trkpt lat="45.94811014179112" lon="12.420595801542154"><ele>54.0</ele><time>2026-04-28T17:48:55Z</time></trkpt><trkpt lat="45.94818837788947" lon="12.420727722030383"><ele>54.0</ele><time>2026-04-28T17:48:56Z</time></trkpt><trkpt lat="45.94824576959528" lon="12.420827885600623"><ele>54.00000000000001</ele><time>2026-04-28T17:48:57Z</time></trkpt><trkpt lat="45.94830892884297" lon="12.420919181348813"><ele>54.00000000000001</ele><time>2026-04-28T17:48:58Z</time></trkpt><trkpt lat="45.948380165660666" lon="12.421032042380999"><ele>54.0</ele><time>2026-04-28T17:48:59Z</time></trkpt><trkpt lat="45.94844851789671" lon="12.42114857605401"><ele>54.0</ele><time>2026-04-28T17:49:00Z</time></trkpt><trkpt lat="45.948512562313894" lon="12.421287534773887"><ele>53.5</ele><time>2026-04-28T17:49:01Z</time></trkpt><trkpt lat="45.94857469238753" lon="12.421416017218508"><ele>53.0</ele><time>2026-04-28T17:49:02Z</time></trkpt><trkpt lat="45.948623380785705" lon="12.42153552699039"><ele>52.5</ele><time>2026-04-28T17:49:03Z</time></trkpt><trkpt lat="45.94867036125466" lon="12.421673358250985"><ele>52.0</ele><time>2026-04-28T17:49:04Z</time></trkpt><trkpt lat="45.94871824121309" lon="12.421859542158334"><ele>52.0</ele><time>2026-04-28T17:49:05Z</time></trkpt><trkpt lat="45.948737117731795" lon="12.422037660701998"><ele>52.0</ele><time>2026-04-28T17:49:06Z</time></trkpt><trkpt lat="45.94875323882017" lon="12.422176497700914"><ele>52.0</ele><time>2026-04-28T17:49:07Z</time></trkpt><trkpt lat="45.948676290846194" lon="12.422289243677142"><ele>52.0</ele><time>2026-04-28T17:49:08Z</time></trkpt><trkpt lat="45.94858192075203" lon="12.422396760504004"><ele>52.33333333333333</ele><time>2026-04-28T17:49:09Z</time></trkpt><trkpt lat="45.9484596375194" lon="12.422524168491627"><ele>52.66666666666667</ele><time>2026-04-28T17:49:10Z</time></trkpt><trkpt lat="45.948316781162866" lon="12.42267178829733"><ele>53.0</ele><time>2026-04-28T17:49:11Z</time></trkpt><trkpt lat="45.948174634897704" lon="12.42283879756128"><ele>52.66666666666667</ele><time>2026-04-28T17:49:12Z</time></trkpt><trkpt lat="45.9480206645451" lon="12.422998050056755"><ele>52.33333333333333</ele><time>2026-04-28T17:49:13Z</time></trkpt><trkpt lat="45.947881043742775" lon="12.423103846714058"><ele>52.0</ele><time>2026-04-28T17:49:14Z</time></trkpt><trkpt lat="45.94777415311381" lon="12.423229092548477"><ele>52.0</ele><time>2026-04-28T17:49:15Z</time></trkpt><trkpt lat="45.94767852794227" lon="12.423347401156406"><ele>52.0</ele><time>2026-04-28T17:49:16Z</time></trkpt><trkpt lat="45.94761746282705" lon="12.423504305910207"><ele>52.0</ele><time>2026-04-28T17:49:17Z</time></trkpt><trkpt lat="45.947595270573146" lon="12.423674357824403"><ele>52.0</ele><time>2026-04-28T17:49:18Z</time></trkpt><trkpt lat="45.94759150083084" lon="12.423890369545877"><ele>52.666666666666664</ele><time>2026-04-28T17:49:19Z</time></trkpt><trkpt lat="45.94754170568903" lon="12.424125967302885"><ele>53.33333333333333</ele><time>2026-04-28T17:49:20Z</time></trkpt><trkpt lat="45.947465046342785" lon="12.424354655631209"><ele>54.0</ele><time>2026-04-28T17:49:21Z</time></trkpt><trkpt lat="45.947353333201676" lon="12.424566147039762"><ele>53.66666666666667</ele><time>2026-04-28T17:49:22Z</time></trkpt><trkpt lat="45.94722734469268" lon="12.424769591941962"><ele>53.333333333333336</ele><time>2026-04-28T17:49:23Z</time></trkpt><trkpt lat="45.94712591739362" lon="12.424959244205203"><ele>53.0</ele><time>2026-04-28T17:49:24Z</time></trkpt><trkpt lat="45.94701684166744" lon="12.425113879307927"><ele>53.0</ele><time>2026-04-28T17:49:25Z</time></trkpt><trkpt lat="45.94692178272743" lon="12.425250806749117"><ele>53.0</ele><time>2026-04-28T17:49:26Z</time></trkpt><trkpt lat="45.946832897215046" lon="12.42537828385659"><ele>53.0</ele><time>2026-04-28T17:49:27Z</time></trkpt><trkpt lat="45.94676342978902" lon="12.425498195042302"><ele>53.0</ele><time>2026-04-28T17:49:28Z</time></trkpt><trkpt lat="45.94671635215686" lon="12.425609517038891"><ele>52.8</ele><time>2026-04-28T17:49:29Z</time></trkpt><trkpt lat="45.946695469893776" lon="12.425708896124066"><ele>52.599999999999994</ele><time>2026-04-28T17:49:30Z</time></trkpt><trkpt lat="45.94672595829886" lon="12.425834918125831"><ele>52.400000000000006</ele><time>2026-04-28T17:49:31Z</time></trkpt><trkpt lat="45.94681304143917" lon="12.42594914525266"><ele>52.2</ele><time>2026-04-28T17:49:32Z</time></trkpt><trkpt lat="45.946907668449164" lon="12.426067999509376"><ele>52.0</ele><time>2026-04-28T17:49:33Z</time></trkpt><trkpt lat="45.947021897715125" lon="12.426189053328738"><ele>52.0</ele><time>2026-04-28T17:49:34Z</time></trkpt><trkpt lat="45.947097326699485" lon="12.426286848833673"><ele>52.0</ele><time>2026-04-28T17:49:35Z</time></trkpt><trkpt lat="45.94716461395692" lon="12.426345100444843"><ele>52.0</ele><time>2026-04-28T17:49:36Z</time></trkpt><trkpt lat="45.94724008008406" lon="12.42639538603269"><ele>52.0</ele><time>2026-04-28T17:49:37Z</time></trkpt><trkpt lat="45.947334935802886" lon="12.42647187374156"><ele>52.0</ele><time>2026-04-28T17:49:38Z</time></trkpt><trkpt lat="45.947456841630185" lon="12.42657907377829"><ele>51.666666666666664</ele><time>2026-04-28T17:49:39Z</time></trkpt><trkpt lat="45.947518807925114" lon="12.4266677728528"><ele>51.33333333333333</ele><time>2026-04-28T17:49:40Z</time></trkpt><trkpt lat="45.94758230760089" lon="12.426763138358218"><ele>51.0</ele><time>2026-04-28T17:49:41Z</time></trkpt><trkpt lat="45.94769851199518" lon="12.427138213200754"><ele>50.5</ele><time>2026-04-28T17:49:42Z</time></trkpt><trkpt lat="45.94749866078283" lon="12.427507335532415"><ele>50.0</ele><time>2026-04-28T17:49:43Z</time></trkpt><trkpt lat="45.947337877134665" lon="12.427602110241782"><ele>50.0</ele><time>2026-04-28T17:49:44Z</time></trkpt><trkpt lat="45.947230908312285" lon="12.427717152182353"><ele>50.0</ele><time>2026-04-28T17:49:45Z</time></trkpt><trkpt lat="45.94710595089047" lon="12.427856539522137"><ele>50.0</ele><time>2026-04-28T17:49:46Z</time></trkpt><trkpt lat="45.94701027514165" lon="12.427986236666673"><ele>50.0</ele><time>2026-04-28T17:49:47Z</time></trkpt><trkpt lat="45.94695557624854" lon="12.42808608324786"><ele>49.6</ele><time>2026-04-28T17:49:48Z</time></trkpt><trkpt lat="45.94691905912155" lon="12.428163901403659"><ele>49.2</ele><time>2026-04-28T17:49:50Z</time></trkpt><trkpt lat="45.94688449332011" lon="12.428249826421983"><ele>48.8</ele><time>2026-04-28T17:49:52Z</time></trkpt><trkpt lat="45.946850165577345" lon="12.428362291938717"><ele>48.4</ele><time>2026-04-28T17:49:55Z</time></trkpt><trkpt lat="45.946816632927835" lon="12.42856977979525"><ele>48.0</ele><time>2026-04-28T17:49:57Z</time></trkpt><trkpt lat="45.94681054411617" lon="12.428696076494784"><ele>48.0</ele><time>2026-04-28T17:49:58Z</time></trkpt><trkpt lat="45.94680303484082" lon="12.428852614799549"><ele>48.0</ele><time>2026-04-28T17:49:59Z</time></trkpt><trkpt lat="45.94679595003809" lon="12.429059200487048"><ele>48.0</ele><time>2026-04-28T17:50:00Z</time></trkpt><trkpt lat="45.94679148076672" lon="12.429260158142531"><ele>48.0</ele><time>2026-04-28T17:50:01Z</time></trkpt><trkpt lat="45.94678637274023" lon="12.429489836914616"><ele>48.0</ele><time>2026-04-28T17:50:01.999Z</time></trkpt><trkpt lat="45.9467820467093" lon="12.429684353835013"><ele>48.0</ele><time>2026-04-28T17:50:02.999Z</time></trkpt><trkpt lat="45.94677759737498" lon="12.429884414958602"><ele>48.0</ele><time>2026-04-28T17:50:04.001Z</time></trkpt><trkpt lat="45.94677355566288" lon="12.430063288929237"><ele>48.0</ele><time>2026-04-28T17:50:05.001Z</time></trkpt><trkpt lat="45.94676924340815" lon="12.43025373648449"><ele>48.0</ele><time>2026-04-28T17:50:06.001Z</time></trkpt><trkpt lat="45.94676465117173" lon="12.430456549326006"><ele>48.0</ele><time>2026-04-28T17:50:07.001Z</time></trkpt><trkpt lat="45.94676209408631" lon="12.430619060623243"><ele>48.0</ele><time>2026-04-28T17:50:08.001Z</time></trkpt><trkpt lat="45.94675146842541" lon="12.430763658532491"><ele>48.0</ele><time>2026-04-28T17:50:09.001Z</time></trkpt><trkpt lat="45.94673656249961" lon="12.43090978706148"><ele>49.0</ele><time>2026-04-28T17:50:10.001Z</time></trkpt><trkpt lat="45.946098255972984" lon="12.431080974981128"><ele>49.0</ele><time>2026-04-28T17:50:11.001Z</time></trkpt><trkpt lat="45.94596664692113" lon="12.431209470016901"><ele>49.0</ele><time>2026-04-28T17:50:12.001Z</time></trkpt><trkpt lat="45.94586546659858" lon="12.43130934921076"><ele>49.0</ele><time>2026-04-28T17:50:13.001Z</time></trkpt><trkpt lat="45.94578809332208" lon="12.431403122351194"><ele>49.0</ele><time>2026-04-28T17:50:14.001Z</time></trkpt><trkpt lat="45.945735303820385" lon="12.431504954601476"><ele>48.5</ele><time>2026-04-28T17:50:15.001Z</time></trkpt><trkpt lat="45.94570127462002" lon="12.431666230179001"><ele>48.0</ele><time>2026-04-28T17:50:17.001Z</time></trkpt><trkpt lat="45.94566434535098" lon="12.431844584740116"><ele>47.5</ele><time>2026-04-28T17:50:20.001Z</time></trkpt><trkpt lat="45.94561226777961" lon="12.432023375949422"><ele>47.0</ele><time>2026-04-28T17:50:21.001Z</time></trkpt><trkpt lat="45.94557383453254" lon="12.432209790364963"><ele>46.5</ele><time>2026-04-28T17:50:22.001Z</time></trkpt><trkpt lat="45.945544144572466" lon="12.43238331618062"><ele>46.0</ele><time>2026-04-28T17:50:23Z</time></trkpt><trkpt lat="45.945496765808116" lon="12.432508297822304"><ele>45.5</ele><time>2026-04-28T17:50:24Z</time></trkpt><trkpt lat="45.9454546742558" lon="12.432694628394666"><ele>45.0</ele><time>2026-04-28T17:50:25Z</time></trkpt><trkpt lat="45.945425013046965" lon="12.432837171777713"><ele>45.0</ele><time>2026-04-28T17:50:26Z</time></trkpt><trkpt lat="45.94540107126968" lon="12.432964781690787"><ele>45.0</ele><time>2026-04-28T17:50:27Z</time></trkpt><trkpt lat="45.9453796716428" lon="12.433099416969513"><ele>45.0</ele><time>2026-04-28T17:50:28Z</time></trkpt><trkpt lat="45.9453596013103" lon="12.433218019356758"><ele>45.0</ele><time>2026-04-28T17:50:29Z</time></trkpt><trkpt lat="45.9453429578764" lon="12.433321202131735"><ele>45.0</ele><time>2026-04-28T17:50:30Z</time></trkpt><trkpt lat="45.94533742714932" lon="12.433442158301792"><ele>45.0</ele><time>2026-04-28T17:50:31Z</time></trkpt><trkpt lat="45.9453293886432" lon="12.433599849485574"><ele>44.8</ele><time>2026-04-28T17:50:32Z</time></trkpt><trkpt lat="45.94531581937592" lon="12.433748410756714"><ele>44.6</ele><time>2026-04-28T17:50:33Z</time></trkpt><trkpt lat="45.945315942157656" lon="12.433863205952667"><ele>44.400000000000006</ele><time>2026-04-28T17:50:34Z</time></trkpt><trkpt lat="45.945310505775126" lon="12.433983165035448"><ele>44.2</ele><time>2026-04-28T17:50:35Z</time></trkpt><trkpt lat="45.945315100105745" lon="12.434143462250866"><ele>44.0</ele><time>2026-04-28T17:50:36Z</time></trkpt><trkpt lat="45.945355171976175" lon="12.434251331231806"><ele>44.2</ele><time>2026-04-28T17:50:38Z</time></trkpt><trkpt lat="45.9454038852755" lon="12.434360624998591"><ele>44.400000000000006</ele><time>2026-04-28T17:50:40Z</time></trkpt><trkpt lat="45.94541829049463" lon="12.43450217992933"><ele>44.6</ele><time>2026-04-28T17:50:42Z</time></trkpt><trkpt lat="45.945434362390415" lon="12.434665022298262"><ele>44.8</ele><time>2026-04-28T17:50:44Z</time></trkpt><trkpt lat="45.94544870656771" lon="12.434785600864524"><ele>45.0</ele><time>2026-04-28T17:50:46Z</time></trkpt><trkpt lat="45.945482662926906" lon="12.434954184085376"><ele>45.0</ele><time>2026-04-28T17:50:48Z</time></trkpt><trkpt lat="45.945515141123565" lon="12.435063251239916"><ele>45.0</ele><time>2026-04-28T17:50:50Z</time></trkpt><trkpt lat="45.945554213980344" lon="12.435254867114445"><ele>45.0</ele><time>2026-04-28T17:51:01Z</time></trkpt><trkpt lat="45.945589844474895" lon="12.435413423804786"><ele>45.0</ele><time>2026-04-28T17:51:02Z</time></trkpt><trkpt lat="45.94560453678911" lon="12.435535510538305"><ele>45.0</ele><time>2026-04-28T17:51:03Z</time></trkpt><trkpt lat="45.9456232708023" lon="12.435703561614847"><ele>45.0</ele><time>2026-04-28T17:51:05Z</time></trkpt><trkpt lat="45.945624710691135" lon="12.435824947753641"><ele>45.0</ele><time>2026-04-28T17:51:06Z</time></trkpt><trkpt lat="45.945622752476424" lon="12.435967531757841"><ele>45.0</ele><time>2026-04-28T17:51:07Z</time></trkpt><trkpt lat="45.94562005449379" lon="12.436100027196124"><ele>45.0</ele><time>2026-04-28T17:51:08Z</time></trkpt><trkpt lat="45.94562661560349" lon="12.436223319407414"><ele>45.0</ele><time>2026-04-28T17:51:09Z</time></trkpt><trkpt lat="45.94562840720235" lon="12.436329411136487"><ele>45.0</ele><time>2026-04-28T17:51:10Z</time></trkpt><trkpt lat="45.9456340642696" lon="12.436424424574257"><ele>45.0</ele><time>2026-04-28T17:51:11Z</time></trkpt><trkpt lat="45.94564226263789" lon="12.436514761636401"><ele>45.0</ele><time>2026-04-28T17:51:12Z</time></trkpt><trkpt lat="45.945654946114686" lon="12.436645383712865"><ele>45.0</ele><time>2026-04-28T17:51:13Z</time></trkpt><trkpt lat="45.94567714474474" lon="12.436797879662977"><ele>45.0</ele><time>2026-04-28T17:51:14Z</time></trkpt><trkpt lat="45.94569962717693" lon="12.436950567251012"><ele>45.0</ele><time>2026-04-28T17:51:15Z</time></trkpt><trkpt lat="45.945726412017144" lon="12.437096229730741"><ele>45.0</ele><time>2026-04-28T17:51:16Z</time></trkpt><trkpt lat="45.9457563428652" lon="12.437240197247961"><ele>45.0</ele><time>2026-04-28T17:51:17Z</time></trkpt><trkpt lat="45.94579045666652" lon="12.43738451252733"><ele>45.0</ele><time>2026-04-28T17:51:18Z</time></trkpt><trkpt lat="45.94582780963044" lon="12.437527633061759"><ele>45.0</ele><time>2026-04-28T17:51:19Z</time></trkpt><trkpt lat="45.945869269614654" lon="12.437695908318863"><ele>45.0</ele><time>2026-04-28T17:51:20Z</time></trkpt><trkpt lat="45.94591802432141" lon="12.437889781469034"><ele>44.4</ele><time>2026-04-28T17:51:21Z</time></trkpt><trkpt lat="45.94594918171566" lon="12.438013547436325"><ele>43.8</ele><time>2026-04-28T17:51:22Z</time></trkpt><trkpt lat="45.94598869366683" lon="12.438194127820475"><ele>43.2</ele><time>2026-04-28T17:51:24Z</time></trkpt><trkpt lat="45.946010530402745" lon="12.438293523949914"><ele>42.6</ele><time>2026-04-28T17:51:25Z</time></trkpt><trkpt lat="45.9460327877461" lon="12.438408760037174"><ele>42.0</ele><time>2026-04-28T17:51:26Z</time></trkpt><trkpt lat="45.946097419027375" lon="12.438707303732825"><ele>42.166666666666664</ele><time>2026-04-28T17:51:28Z</time></trkpt><trkpt lat="45.94613265771784" lon="12.438839610742816"><ele>42.333333333333336</ele><time>2026-04-28T17:51:28.999Z</time></trkpt><trkpt lat="45.946160082114595" lon="12.438957179488689"><ele>42.5</ele><time>2026-04-28T17:51:29.999Z</time></trkpt><trkpt lat="45.9461844532186" lon="12.439060221112555"><ele>42.66666666666667</ele><time>2026-04-28T17:51:30.999Z</time></trkpt><trkpt lat="45.946209932593874" lon="12.43915063011204"><ele>42.833333333333336</ele><time>2026-04-28T17:51:31.999Z</time></trkpt><trkpt lat="45.9462438533046" lon="12.439259643341842"><ele>43.0</ele><time>2026-04-28T17:51:33.999Z</time></trkpt><trkpt lat="45.94615752338131" lon="12.439312125411771"><ele>43.0</ele><time>2026-04-28T17:51:37.999Z</time></trkpt><trkpt lat="45.94604919826849" lon="12.439313794759578"><ele>43.0</ele><time>2026-04-28T17:51:38.999Z</time></trkpt><trkpt lat="45.94594345308386" lon="12.439321156280098"><ele>43.0</ele><time>2026-04-28T17:51:39.999Z</time></trkpt><trkpt lat="45.945868176196214" lon="12.439331107452453"><ele>43.0</ele><time>2026-04-28T17:51:41.999Z</time></trkpt><trkpt lat="45.945906042105975" lon="12.439417474516803"><ele>43.0</ele><time>2026-04-28T17:51:43.999Z</time></trkpt><trkpt lat="45.94601245537927" lon="12.43957405398442"><ele>43.2</ele><time>2026-04-28T17:51:45.999Z</time></trkpt><trkpt lat="45.946078345659636" lon="12.439688095708712"><ele>43.4</ele><time>2026-04-28T17:51:46.999Z</time></trkpt><trkpt lat="45.946018155393375" lon="12.439758589174719"><ele>43.6</ele><time>2026-04-28T17:51:48.999Z</time></trkpt><trkpt lat="45.94600012785315" lon="12.43985402533677"><ele>43.800000000000004</ele><time>2026-04-28T17:51:49.999Z</time></trkpt><trkpt lat="45.946052889008406" lon="12.439982184170685"><ele>44.0</ele><time>2026-04-28T17:51:50.999Z</time></trkpt><trkpt lat="45.94610698960011" lon="12.440142412497998"><ele>44.0</ele><time>2026-04-28T17:51:51.999Z</time></trkpt><trkpt lat="45.94614176296838" lon="12.440233990930835"><ele>44.0</ele><time>2026-04-28T17:51:53.999Z</time></trkpt><trkpt lat="45.946209039166185" lon="12.440273352820068"><ele>44.0</ele><time>2026-04-28T17:51:55.999Z</time></trkpt><trkpt lat="45.94620617664276" lon="12.440431133916439"><ele>44.0</ele><time>2026-04-28T17:52:04.999Z</time></trkpt><trkpt lat="45.94618480505314" lon="12.440561322115439"><ele>44.0</ele><time>2026-04-28T17:52:05.999Z</time></trkpt><trkpt lat="45.946196371612594" lon="12.440657469529455"><ele>44.0</ele><time>2026-04-28T17:52:06.999Z</time></trkpt><trkpt lat="45.94617289942186" lon="12.440791074811838"><ele>43.83333333333333</ele><time>2026-04-28T17:52:07.999Z</time></trkpt><trkpt lat="45.946195033078126" lon="12.440881728715352"><ele>43.666666666666664</ele><time>2026-04-28T17:52:08.999Z</time></trkpt><trkpt lat="45.94622834857471" lon="12.441012437791926"><ele>43.5</ele><time>2026-04-28T17:52:11.001Z</time></trkpt><trkpt lat="45.946260471841285" lon="12.441138469308262"><ele>43.333333333333336</ele><time>2026-04-28T17:52:13.001Z</time></trkpt><trkpt lat="45.94628230302475" lon="12.441228415919767"><ele>43.16666666666667</ele><time>2026-04-28T17:52:15.001Z</time></trkpt><trkpt lat="45.94630093768666" lon="12.441316312137172"><ele>43.0</ele><time>2026-04-28T17:52:16.001Z</time></trkpt><trkpt lat="45.94631886165053" lon="12.44148127958119"><ele>43.0</ele><time>2026-04-28T17:52:17.001Z</time></trkpt><trkpt lat="45.94636043908211" lon="12.441690099592593"><ele>43.0</ele><time>2026-04-28T17:52:18.001Z</time></trkpt><trkpt lat="45.94641448069481" lon="12.44191853755787"><ele>43.0</ele><time>2026-04-28T17:52:19.001Z</time></trkpt><trkpt lat="45.94646327485312" lon="12.442136747102614"><ele>42.75</ele><time>2026-04-28T17:52:20.001Z</time></trkpt><trkpt lat="45.9464322154884" lon="12.442250053904193"><ele>42.5</ele><time>2026-04-28T17:52:21Z</time></trkpt><trkpt lat="45.946421147276965" lon="12.442344377933601"><ele>42.25</ele><time>2026-04-28T17:52:22Z</time></trkpt><trkpt lat="45.946592942074" lon="12.442681579360613"><ele>42.0</ele><time>2026-04-28T17:52:24Z</time></trkpt><trkpt lat="45.94689843534102" lon="12.442676395145913"><ele>42.0</ele><time>2026-04-28T17:52:25Z</time></trkpt><trkpt lat="45.94692729046496" lon="12.442795060921737"><ele>42.0</ele><time>2026-04-28T17:52:26Z</time></trkpt><trkpt lat="45.94695336113797" lon="12.442881387784842"><ele>42.0</ele><time>2026-04-28T17:52:27Z</time></trkpt><trkpt lat="45.94701476248656" lon="12.442994697012056"><ele>42.0</ele><time>2026-04-28T17:52:28Z</time></trkpt><trkpt lat="45.94707488419646" lon="12.443077323387763"><ele>42.0</ele><time>2026-04-28T17:52:29Z</time></trkpt><trkpt lat="45.94706218670743" lon="12.443208137301145"><ele>42.0</ele><time>2026-04-28T17:52:32Z</time></trkpt><trkpt lat="45.947100787902706" lon="12.443304611511996"><ele>42.285714285714285</ele><time>2026-04-28T17:52:34Z</time></trkpt><trkpt lat="45.94719123642061" lon="12.443304043937792"><ele>42.57142857142857</ele><time>2026-04-28T17:52:37Z</time></trkpt><trkpt lat="45.94722908856805" lon="12.44337792569184"><ele>42.85714285714286</ele><time>2026-04-28T17:52:39Z</time></trkpt><trkpt lat="45.94720838260905" lon="12.443473622819807"><ele>43.14285714285714</ele><time>2026-04-28T17:52:40Z</time></trkpt><trkpt lat="45.94727959539208" lon="12.443521952201666"><ele>43.42857142857143</ele><time>2026-04-28T17:52:43Z</time></trkpt><trkpt lat="45.947350948840935" lon="12.443513060179987"><ele>43.714285714285715</ele><time>2026-04-28T17:52:45Z</time></trkpt><trkpt lat="45.94737602935981" lon="12.44360937292874"><ele>44.0</ele><time>2026-04-28T17:52:46Z</time></trkpt><trkpt lat="45.94740116945833" lon="12.443753377529255"><ele>43.25</ele><time>2026-04-28T17:52:47Z</time></trkpt><trkpt lat="45.94743335735421" lon="12.443973838045952"><ele>42.5</ele><time>2026-04-28T17:52:49Z</time></trkpt><trkpt lat="45.94748229408581" lon="12.444168035383482"><ele>41.75</ele><time>2026-04-28T17:52:50Z</time></trkpt><trkpt lat="45.947494137382144" lon="12.44432654976083"><ele>41.0</ele><time>2026-04-28T17:52:51Z</time></trkpt><trkpt lat="45.94747486666195" lon="12.444447056342495"><ele>41.0</ele><time>2026-04-28T17:52:52Z</time></trkpt><trkpt lat="45.947436476926185" lon="12.444647022589175"><ele>41.0</ele><time>2026-04-28T17:52:53Z</time></trkpt><trkpt lat="45.94740449034921" lon="12.444861368693026"><ele>41.0</ele><time>2026-04-28T17:52:54Z</time></trkpt><trkpt lat="45.94739265480821" lon="12.444981779850313"><ele>41.0</ele><time>2026-04-28T17:52:55Z</time></trkpt><trkpt lat="45.947378651320705" lon="12.44508228554394"><ele>41.0</ele><time>2026-04-28T17:53:10Z</time></trkpt><trkpt lat="45.947371775703424" lon="12.445177916601262"><ele>41.0</ele><time>2026-04-28T17:53:13Z</time></trkpt><trkpt lat="45.94742768342733" lon="12.445278431568134"><ele>41.0</ele><time>2026-04-28T17:53:17Z</time></trkpt><trkpt lat="45.94739562615766" lon="12.44538299582373"><ele>41.0</ele><time>2026-04-28T17:53:29Z</time></trkpt><trkpt lat="45.947295402907585" lon="12.44549112942379"><ele>41.0</ele><time>2026-04-28T17:53:31Z</time></trkpt><trkpt lat="45.94727060224207" lon="12.445583801406974"><ele>41.0</ele><time>2026-04-28T17:53:33Z</time></trkpt><trkpt lat="45.94730840477228" lon="12.445690578372359"><ele>41.25</ele><time>2026-04-28T17:53:36.999Z</time></trkpt><trkpt lat="45.94729136895586" lon="12.445817559056747"><ele>41.5</ele><time>2026-04-28T17:53:37.999Z</time></trkpt><trkpt lat="45.947266998543874" lon="12.446013874202512"><ele>41.75</ele><time>2026-04-28T17:53:38.999Z</time></trkpt><trkpt lat="45.9472611303057" lon="12.446161757957896"><ele>42.0</ele><time>2026-04-28T17:53:39.999Z</time></trkpt><trkpt lat="45.947274635920756" lon="12.446348344787124"><ele>42.0</ele><time>2026-04-28T17:53:41.999Z</time></trkpt><trkpt lat="45.947295393767845" lon="12.446451018009533"><ele>42.0</ele><time>2026-04-28T17:53:42.999Z</time></trkpt><trkpt lat="45.94733910556666" lon="12.446589284407986"><ele>42.0</ele><time>2026-04-28T17:53:44.999Z</time></trkpt><trkpt lat="45.94737532220764" lon="12.446701653772735"><ele>42.0</ele><time>2026-04-28T17:53:46.999Z</time></trkpt><trkpt lat="45.94741394295699" lon="12.446811168604825"><ele>42.0</ele><time>2026-04-28T17:54:04.999Z</time></trkpt><trkpt lat="45.94746931499934" lon="12.446924120752787"><ele>42.0</ele><time>2026-04-28T17:54:06.999Z</time></trkpt><trkpt lat="45.947510660883665" lon="12.44702509527814"><ele>42.25</ele><time>2026-04-28T17:54:07.999Z</time></trkpt><trkpt lat="45.94756350375657" lon="12.447176844515592"><ele>42.5</ele><time>2026-04-28T17:54:09.999Z</time></trkpt><trkpt lat="45.947613513400015" lon="12.447299788806959"><ele>42.75</ele><time>2026-04-28T17:54:10.999Z</time></trkpt><trkpt lat="45.94767702208175" lon="12.447459866337036"><ele>43.0</ele><time>2026-04-28T17:54:11.999Z</time></trkpt><trkpt lat="45.94774582462221" lon="12.447634483896463"><ele>43.0</ele><time>2026-04-28T17:54:12.999Z</time></trkpt><trkpt lat="45.94779511522459" lon="12.44773318797184"><ele>43.0</ele><time>2026-04-28T17:54:13.999Z</time></trkpt><trkpt lat="45.947854437415764" lon="12.447838361861178"><ele>43.0</ele><time>2026-04-28T17:54:14.999Z</time></trkpt><trkpt lat="45.947945562311546" lon="12.447935083344243"><ele>43.0</ele><time>2026-04-28T17:54:17.001Z</time></trkpt><trkpt lat="45.9480082359431" lon="12.44798288811882"><ele>43.0</ele><time>2026-04-28T17:54:18Z</time></trkpt><trkpt lat="45.948077273363396" lon="12.44802976922189"><ele>43.0</ele><time>2026-04-28T17:54:19Z</time></trkpt><trkpt lat="45.948158865483705" lon="12.448070262895694"><ele>42.833333333333336</ele><time>2026-04-28T17:54:20.001Z</time></trkpt><trkpt lat="45.94824041047392" lon="12.44811583781864"><ele>42.66666666666667</ele><time>2026-04-28T17:54:21Z</time></trkpt><trkpt lat="45.94831634673219" lon="12.44815954264798"><ele>42.5</ele><time>2026-04-28T17:54:22Z</time></trkpt><trkpt lat="45.94839454630844" lon="12.448203170691697"><ele>42.333333333333336</ele><time>2026-04-28T17:54:23.001Z</time></trkpt><trkpt lat="45.94845682369611" lon="12.448256522318996"><ele>42.166666666666664</ele><time>2026-04-28T17:54:24Z</time></trkpt><trkpt lat="45.94854325055884" lon="12.448379877691691"><ele>42.0</ele><time>2026-04-28T17:54:26Z</time></trkpt><trkpt lat="45.948576475380456" lon="12.44847630067475"><ele>42.0</ele><time>2026-04-28T17:54:27Z</time></trkpt><trkpt lat="45.94860567312075" lon="12.448585750207073"><ele>42.0</ele><time>2026-04-28T17:54:28Z</time></trkpt><trkpt lat="45.94862576716414" lon="12.448688751096944"><ele>42.0</ele><time>2026-04-28T17:54:29Z</time></trkpt><trkpt lat="45.948633087115" lon="12.448786183683326"><ele>42.0</ele><time>2026-04-28T17:54:30Z</time></trkpt><trkpt lat="45.94863832593308" lon="12.448885509697913"><ele>42.0</ele><time>2026-04-28T17:54:31Z</time></trkpt><trkpt lat="45.948650351542994" lon="12.448990057991141"><ele>42.0</ele><time>2026-04-28T17:54:32Z</time></trkpt><trkpt lat="45.94866073310481" lon="12.449118312802385"><ele>41.833333333333336</ele><time>2026-04-28T17:54:33Z</time></trkpt><trkpt lat="45.94865757892596" lon="12.449250254011522"><ele>41.666666666666664</ele><time>2026-04-28T17:54:34Z</time></trkpt><trkpt lat="45.948639153852305" lon="12.449345327438378"><ele>41.5</ele><time>2026-04-28T17:54:35Z</time></trkpt><trkpt lat="45.948605534298125" lon="12.44952713562481"><ele>41.33333333333333</ele><time>2026-04-28T17:54:37Z</time></trkpt><trkpt lat="45.948577897683826" lon="12.449619886593275"><ele>41.166666666666664</ele><time>2026-04-28T17:54:38Z</time></trkpt><trkpt lat="45.948547163159205" lon="12.449714069976107"><ele>41.0</ele><time>2026-04-28T17:54:39Z</time></trkpt><trkpt lat="45.94851314183662" lon="12.449798422128008"><ele>41.0</ele><time>2026-04-28T17:54:40Z</time></trkpt><trkpt lat="45.94843127795241" lon="12.449889025515665"><ele>41.0</ele><time>2026-04-28T17:54:42Z</time></trkpt><trkpt lat="45.94833058835818" lon="12.449911492719671"><ele>41.0</ele><time>2026-04-28T17:54:44Z</time></trkpt><trkpt lat="45.94821360692372" lon="12.449913519668833"><ele>41.0</ele><time>2026-04-28T17:54:46Z</time></trkpt><trkpt lat="45.948122521272005" lon="12.44992367561886"><ele>41.0</ele><time>2026-04-28T17:54:48Z</time></trkpt><trkpt lat="45.9480467351677" lon="12.449887968878254"><ele>40.83333333333333</ele><time>2026-04-28T17:55:03Z</time></trkpt><trkpt lat="45.94796584385081" lon="12.44991005155185"><ele>40.666666666666664</ele><time>2026-04-28T17:55:05Z</time></trkpt><trkpt lat="45.94789020863954" lon="12.44994341475162"><ele>40.5</ele><time>2026-04-28T17:55:07Z</time></trkpt><trkpt lat="45.94781839469333" lon="12.4498877935377"><ele>40.333333333333336</ele><time>2026-04-28T17:55:09Z</time></trkpt><trkpt lat="45.94778500986833" lon="12.449809400065094"><ele>40.16666666666667</ele><time>2026-04-28T17:55:11Z</time></trkpt><trkpt lat="45.94768507095864" lon="12.449777809055776"><ele>40.0</ele><time>2026-04-28T17:55:13Z</time></trkpt><trkpt lat="45.94761209231249" lon="12.44977574890547"><ele>40.0</ele><time>2026-04-28T17:55:14Z</time></trkpt><trkpt lat="45.94754480968948" lon="12.449791065374152"><ele>40.0</ele><time>2026-04-28T17:55:15Z</time></trkpt><trkpt lat="45.947475439773235" lon="12.449802829537168"><ele>40.0</ele><time>2026-04-28T17:55:16Z</time></trkpt><trkpt lat="45.94740824129617" lon="12.449826676964461"><ele>40.0</ele><time>2026-04-28T17:55:17Z</time></trkpt><trkpt lat="45.94729132141141" lon="12.449898481944066"><ele>40.0</ele><time>2026-04-28T17:55:19Z</time></trkpt><trkpt lat="45.94719856121705" lon="12.449992505518269"><ele>40.0</ele><time>2026-04-28T17:55:21Z</time></trkpt><trkpt lat="45.94711235733016" lon="12.44995914824434"><ele>39.833333333333336</ele><time>2026-04-28T17:55:24Z</time></trkpt><trkpt lat="45.94704005215523" lon="12.45002304313752"><ele>39.66666666666667</ele><time>2026-04-28T17:55:26Z</time></trkpt><trkpt lat="45.946989345984335" lon="12.450102792734024"><ele>39.5</ele><time>2026-04-28T17:55:27Z</time></trkpt><trkpt lat="45.946926903724155" lon="12.450213771472862"><ele>39.333333333333336</ele><time>2026-04-28T17:55:28Z</time></trkpt><trkpt lat="45.94687960120826" lon="12.45029685475937"><ele>39.166666666666664</ele><time>2026-04-28T17:55:29Z</time></trkpt><trkpt lat="45.94680680372168" lon="12.45041604331095"><ele>39.0</ele><time>2026-04-28T17:55:30Z</time></trkpt><trkpt lat="45.94675198176294" lon="12.450509983094879"><ele>39.2</ele><time>2026-04-28T17:55:31Z</time></trkpt><trkpt lat="45.94668795245453" lon="12.450648713334516"><ele>39.4</ele><time>2026-04-28T17:55:32Z</time></trkpt><trkpt lat="45.94664552998044" lon="12.450776709990382"><ele>39.6</ele><time>2026-04-28T17:55:33Z</time></trkpt><trkpt lat="45.94662812798642" lon="12.450870320621812"><ele>39.8</ele><time>2026-04-28T17:55:34Z</time></trkpt><trkpt lat="45.946646503132925" lon="12.451017954628618"><ele>40.0</ele><time>2026-04-28T17:55:36Z</time></trkpt><trkpt lat="45.946664467645896" lon="12.45116750193602"><ele>40.0</ele><time>2026-04-28T17:55:44.999Z</time></trkpt><trkpt lat="45.94666407344712" lon="12.451260712369317"><ele>40.0</ele><time>2026-04-28T17:55:45.999Z</time></trkpt><trkpt lat="45.94665102782036" lon="12.45137177797733"><ele>40.0</ele><time>2026-04-28T17:55:46.999Z</time></trkpt><trkpt lat="45.94662977456241" lon="12.45151364096908"><ele>40.0</ele><time>2026-04-28T17:55:47.999Z</time></trkpt><trkpt lat="45.94660250935162" lon="12.45167166060718"><ele>40.0</ele><time>2026-04-28T17:55:48.999Z</time></trkpt><trkpt lat="45.94657601158168" lon="12.45180528645877"><ele>40.16666666666667</ele><time>2026-04-28T17:55:49.999Z</time></trkpt><trkpt lat="45.94655635842585" lon="12.451916701711326"><ele>40.333333333333336</ele><time>2026-04-28T17:55:50.999Z</time></trkpt><trkpt lat="45.94653929259406" lon="12.452009110632236"><ele>40.5</ele><time>2026-04-28T17:55:51.999Z</time></trkpt><trkpt lat="45.946514269652994" lon="12.45216367948447"><ele>40.666666666666664</ele><time>2026-04-28T17:55:53.999Z</time></trkpt><trkpt lat="45.94651662380879" lon="12.452296836665505"><ele>40.83333333333333</ele><time>2026-04-28T17:56:08.999Z</time></trkpt><trkpt lat="45.94644838847363" lon="12.45233698404583"><ele>41.0</ele><time>2026-04-28T17:56:17.999Z</time></trkpt><trkpt lat="45.946378659656496" lon="12.45232029611095"><ele>41.0</ele><time>2026-04-28T17:56:19.999Z</time></trkpt><trkpt lat="45.946303243788016" lon="12.452307236218886"><ele>41.0</ele><time>2026-04-28T17:56:22.001Z</time></trkpt><trkpt lat="45.94624428990456" lon="12.452271432119016"><ele>41.0</ele><time>2026-04-28T17:56:31.001Z</time></trkpt><trkpt lat="45.94617483743281" lon="12.452168626832247"><ele>41.0</ele><time>2026-04-28T17:56:33Z</time></trkpt><trkpt lat="45.94610903868512" lon="12.452046151297683"><ele>41.0</ele><time>2026-04-28T17:56:35.001Z</time></trkpt><trkpt lat="45.94604084124245" lon="12.452051092159035"><ele>41.0</ele><time>2026-04-28T17:56:37Z</time></trkpt><trkpt lat="45.945969115564225" lon="12.452088155677632"><ele>41.166666666666664</ele><time>2026-04-28T17:56:39Z</time></trkpt><trkpt lat="45.94587845390815" lon="12.452099219308804"><ele>41.33333333333333</ele><time>2026-04-28T17:56:42Z</time></trkpt><trkpt lat="45.94578973094418" lon="12.452075655193674"><ele>41.5</ele><time>2026-04-28T17:56:45Z</time></trkpt><trkpt lat="45.945727788668755" lon="12.452038854140593"><ele>41.666666666666664</ele><time>2026-04-28T17:56:46Z</time></trkpt><trkpt lat="45.945619973943906" lon="12.451937829725908"><ele>41.833333333333336</ele><time>2026-04-28T17:56:48Z</time></trkpt><trkpt lat="45.94556531307945" lon="12.451878054581659"><ele>42.0</ele><time>2026-04-28T17:56:49Z</time></trkpt><trkpt lat="45.94549327667862" lon="12.451811122724699"><ele>42.0</ele><time>2026-04-28T17:56:51Z</time></trkpt><trkpt lat="45.94544891289535" lon="12.451726304335713"><ele>42.0</ele><time>2026-04-28T17:56:54Z</time></trkpt><trkpt lat="45.94542360940104" lon="12.451630253319067"><ele>42.0</ele><time>2026-04-28T17:57:04Z</time></trkpt><trkpt lat="45.94536886846267" lon="12.451575275249368"><ele>42.0</ele><time>2026-04-28T17:57:07Z</time></trkpt><trkpt lat="45.945318196446735" lon="12.451634016790607"><ele>42.0</ele><time>2026-04-28T17:57:14Z</time></trkpt><trkpt lat="45.94526242077616" lon="12.451679261768627"><ele>42.0</ele><time>2026-04-28T17:57:17Z</time></trkpt><trkpt lat="45.94518564544761" lon="12.451639188842764"><ele>42.0</ele><time>2026-04-28T17:57:18Z</time></trkpt><trkpt lat="45.94509667269469" lon="12.451551539914568"><ele>41.5</ele><time>2026-04-28T17:57:19Z</time></trkpt><trkpt lat="45.94502305359168" lon="12.451526958579697"><ele>41.0</ele><time>2026-04-28T17:57:20Z</time></trkpt><trkpt lat="45.94489478799005" lon="12.45150037054654"><ele>40.5</ele><time>2026-04-28T17:57:21Z</time></trkpt><trkpt lat="45.944750543482456" lon="12.45147390804812"><ele>40.0</ele><time>2026-04-28T17:57:22Z</time></trkpt><trkpt lat="45.94465174121389" lon="12.451439107559382"><ele>40.0</ele><time>2026-04-28T17:57:23Z</time></trkpt><trkpt lat="45.94471923860849" lon="12.451405009261189"><ele>40.0</ele><time>2026-04-28T17:57:28Z</time></trkpt><trkpt lat="45.94476164763221" lon="12.45128030143928"><ele>40.0</ele><time>2026-04-28T17:57:30Z</time></trkpt><trkpt lat="45.94470935519402" lon="12.451418786788883"><ele>40.0</ele><time>2026-04-28T17:58:14.999Z</time></trkpt><trkpt lat="45.94462036076327" lon="12.451424001804515"><ele>40.0</ele><time>2026-04-28T17:58:17.999Z</time></trkpt><trkpt lat="45.94452529636625" lon="12.451367418015474"><ele>40.0</ele><time>2026-04-28T17:58:18.999Z</time></trkpt><trkpt lat="45.944407947626054" lon="12.45128488149847"><ele>40.0</ele><time>2026-04-28T17:58:19.999Z</time></trkpt><trkpt lat="45.944336354700674" lon="12.451233248545021"><ele>40.0</ele><time>2026-04-28T17:58:20.999Z</time></trkpt><trkpt lat="45.9442662300776" lon="12.451167809224232"><ele>40.0</ele><time>2026-04-28T17:58:22.999Z</time></trkpt><trkpt lat="45.94420108342854" lon="12.451159397052063"><ele>40.0</ele><time>2026-04-28T17:58:33.001Z</time></trkpt><trkpt lat="45.94415488335684" lon="12.451288930171248"><ele>39.8</ele><time>2026-04-28T17:58:35.001Z</time></trkpt><trkpt lat="45.94412647737139" lon="12.451424859212441"><ele>39.6</ele><time>2026-04-28T17:58:36.001Z</time></trkpt><trkpt lat="45.944084810389526" lon="12.451573000965166"><ele>39.4</ele><time>2026-04-28T17:58:37.001Z</time></trkpt><trkpt lat="45.94404565981674" lon="12.451716128221426"><ele>39.2</ele><time>2026-04-28T17:58:38.001Z</time></trkpt><trkpt lat="45.94401727064844" lon="12.451812426771024"><ele>39.0</ele><time>2026-04-28T17:58:39.001Z</time></trkpt><trkpt lat="45.94399717320061" lon="12.451915545987502"><ele>39.0</ele><time>2026-04-28T17:58:40.001Z</time></trkpt><trkpt lat="45.943975460698645" lon="12.452005209341296"><ele>39.0</ele><time>2026-04-28T17:58:41.001Z</time></trkpt><trkpt lat="45.94393916457324" lon="12.452168521921697"><ele>39.0</ele><time>2026-04-28T17:58:43Z</time></trkpt><trkpt lat="45.943910885902156" lon="12.452255408954812"><ele>39.0</ele><time>2026-04-28T17:58:44Z</time></trkpt><trkpt lat="45.943866039680934" lon="12.45240139328398"><ele>39.0</ele><time>2026-04-28T17:58:46Z</time></trkpt><trkpt lat="45.94381996916744" lon="12.452530417617998"><ele>39.0</ele><time>2026-04-28T17:58:48Z</time></trkpt><trkpt lat="45.943739708135745" lon="12.452486695927671"><ele>39.0</ele><time>2026-04-28T17:59:05Z</time></trkpt><trkpt lat="45.94362938969136" lon="12.452367798005024"><ele>39.0</ele><time>2026-04-28T17:59:18Z</time></trkpt><trkpt lat="45.94356871750513" lon="12.452133408983723"><ele>39.0</ele><time>2026-04-28T17:59:20Z</time></trkpt><trkpt lat="45.94349858492013" lon="12.452102896603579"><ele>39.0</ele><time>2026-04-28T17:59:21.999Z</time></trkpt><trkpt lat="45.94342952631051" lon="12.452079779932834"><ele>39.0</ele><time>2026-04-28T17:59:22.999Z</time></trkpt><trkpt lat="45.94333317891942" lon="12.452071010312395"><ele>39.0</ele><time>2026-04-28T17:59:24.999Z</time></trkpt><trkpt lat="45.94324925693745" lon="12.452046994448617"><ele>39.0</ele><time>2026-04-28T17:59:26.999Z</time></trkpt><trkpt lat="45.94318430385903" lon="12.452032536496949"><ele>39.0</ele><time>2026-04-28T17:59:29.999Z</time></trkpt><trkpt lat="45.94311195690881" lon="12.452019431672843"><ele>39.0</ele><time>2026-04-28T17:59:31.999Z</time></trkpt><trkpt lat="45.94309092313126" lon="12.452210571645892"><ele>38.75</ele><time>2026-04-28T17:59:32.999Z</time></trkpt><trkpt lat="45.94308084867289" lon="12.45237767904496"><ele>38.5</ele><time>2026-04-28T17:59:33.999Z</time></trkpt><trkpt lat="45.943064147267386" lon="12.452571550851687"><ele>38.25</ele><time>2026-04-28T17:59:34.999Z</time></trkpt><trkpt lat="45.943032417457495" lon="12.452774542958078"><ele>38.0</ele><time>2026-04-28T17:59:35.999Z</time></trkpt><trkpt lat="45.94300051905475" lon="12.452995397215059"><ele>38.0</ele><time>2026-04-28T17:59:36.999Z</time></trkpt><trkpt lat="45.94296720761746" lon="12.453233768294108"><ele>38.0</ele><time>2026-04-28T17:59:37.999Z</time></trkpt><trkpt lat="45.94293229337403" lon="12.453495124149919"><ele>38.0</ele><time>2026-04-28T17:59:38.999Z</time></trkpt><trkpt lat="45.94289740179986" lon="12.453763140381144"><ele>38.666666666666664</ele><time>2026-04-28T17:59:39.999Z</time></trkpt><trkpt lat="45.94286085616108" lon="12.454044924069064"><ele>39.333333333333336</ele><time>2026-04-28T17:59:40.999Z</time></trkpt><trkpt lat="45.94282218835213" lon="12.454332203524427"><ele>40.0</ele><time>2026-04-28T17:59:41.999Z</time></trkpt><trkpt lat="45.9427847235867" lon="12.454621499337499"><ele>40.0</ele><time>2026-04-28T17:59:42.999Z</time></trkpt><trkpt lat="45.94274804059096" lon="12.454918366311823"><ele>40.0</ele><time>2026-04-28T17:59:43.999Z</time></trkpt><trkpt lat="45.94271823344656" lon="12.45519165951008"><ele>40.0</ele><time>2026-04-28T17:59:44.999Z</time></trkpt><trkpt lat="45.942696680409874" lon="12.455388165965267"><ele>39.833333333333336</ele><time>2026-04-28T17:59:45.999Z</time></trkpt><trkpt lat="45.9426836422536" lon="12.455552772787629"><ele>39.66666666666667</ele><time>2026-04-28T17:59:46.999Z</time></trkpt><trkpt lat="45.94266637220964" lon="12.455666453231709"><ele>39.5</ele><time>2026-04-28T17:59:47.999Z</time></trkpt><trkpt lat="45.94263339160362" lon="12.455750352616977"><ele>39.333333333333336</ele><time>2026-04-28T17:59:49.999Z</time></trkpt><trkpt lat="45.94253323784187" lon="12.455666771431057"><ele>39.166666666666664</ele><time>2026-04-28T17:59:50.999Z</time></trkpt><trkpt lat="45.94246805337038" lon="12.455651000096477"><ele>39.0</ele><time>2026-04-28T17:59:51.999Z</time></trkpt><trkpt lat="45.942403838933046" lon="12.455635087555278"><ele>38.6</ele><time>2026-04-28T17:59:52.999Z</time></trkpt><trkpt lat="45.942327157517475" lon="12.455613414731406"><ele>38.2</ele><time>2026-04-28T17:59:54.999Z</time></trkpt><trkpt lat="45.942324634470474" lon="12.45581290791896"><ele>37.800000000000004</ele><time>2026-04-28T17:59:56.999Z</time></trkpt><trkpt lat="45.94234506910997" lon="12.455917935347923"><ele>37.4</ele><time>2026-04-28T17:59:57.999Z</time></trkpt><trkpt lat="45.94232701809531" lon="12.456062407847936"><ele>37.0</ele><time>2026-04-28T17:59:59.998Z</time></trkpt><trkpt lat="45.942288589686015" lon="12.456159900026655"><ele>37.0</ele><time>2026-04-28T18:00:01.998Z</time></trkpt><trkpt lat="45.94220207869153" lon="12.456216620099688"><ele>37.0</ele><time>2026-04-28T18:00:03.998Z</time></trkpt><trkpt lat="45.942131187797365" lon="12.45622954083558"><ele>37.0</ele><time>2026-04-28T18:00:05.998Z</time></trkpt><trkpt lat="45.942049187721565" lon="12.456262241607202"><ele>37.0</ele><time>2026-04-28T18:00:08.998Z</time></trkpt><trkpt lat="45.94203963399398" lon="12.45644286349622"><ele>37.0</ele><time>2026-04-28T18:00:12.998Z</time></trkpt><trkpt lat="45.9420528707518" lon="12.4566136296682"><ele>37.0</ele><time>2026-04-28T18:00:13.998Z</time></trkpt><trkpt lat="45.94205996850349" lon="12.456721506227463"><ele>37.0</ele><time>2026-04-28T18:00:14.998Z</time></trkpt><trkpt lat="45.94203742413596" lon="12.456807693296774"><ele>37.0</ele><time>2026-04-28T18:00:15.998Z</time></trkpt><trkpt lat="45.94197518659101" lon="12.456767997355774"><ele>37.0</ele><time>2026-04-28T18:00:16.998Z</time></trkpt><trkpt lat="45.94193640249733" lon="12.456841658933"><ele>37.0</ele><time>2026-04-28T18:00:18.998Z</time></trkpt><trkpt lat="45.941933754474476" lon="12.457074297982015"><ele>37.0</ele><time>2026-04-28T18:00:20.998Z</time></trkpt><trkpt lat="45.94195984490838" lon="12.457249196427624"><ele>36.6</ele><time>2026-04-28T18:00:21.998Z</time></trkpt><trkpt lat="45.94200531075098" lon="12.457380568403945"><ele>36.2</ele><time>2026-04-28T18:00:22.998Z</time></trkpt><trkpt lat="45.94206247066343" lon="12.457471748734584"><ele>35.8</ele><time>2026-04-28T18:00:23.998Z</time></trkpt><trkpt lat="45.94210018113024" lon="12.457573794880757"><ele>35.4</ele><time>2026-04-28T18:00:24.998Z</time></trkpt><trkpt lat="45.942101901912515" lon="12.457708039685986"><ele>35.0</ele><time>2026-04-28T18:00:25.998Z</time></trkpt><trkpt lat="45.94206529031235" lon="12.45789783901828"><ele>35.0</ele><time>2026-04-28T18:00:26.998Z</time></trkpt><trkpt lat="45.94198917813102" lon="12.458025556336743"><ele>35.0</ele><time>2026-04-28T18:00:27.998Z</time></trkpt><trkpt lat="45.94191539815073" lon="12.45825140871307"><ele>35.0</ele><time>2026-04-28T18:00:28.998Z</time></trkpt><trkpt lat="45.94184232300704" lon="12.458488736294296"><ele>35.0</ele><time>2026-04-28T18:00:29.998Z</time></trkpt><trkpt lat="45.94177012605147" lon="12.458726986393415"><ele>35.0</ele><time>2026-04-28T18:00:30.998Z</time></trkpt><trkpt lat="45.94171501958093" lon="12.458923069883635"><ele>35.0</ele><time>2026-04-28T18:00:31.998Z</time></trkpt><trkpt lat="45.941662826863556" lon="12.459069920706012"><ele>35.0</ele><time>2026-04-28T18:00:32.998Z</time></trkpt><trkpt lat="45.94161547081624" lon="12.459196643838041"><ele>34.75</ele><time>2026-04-28T18:00:34Z</time></trkpt><trkpt lat="45.941574907640714" lon="12.459275992766825"><ele>34.5</ele><time>2026-04-28T18:00:35Z</time></trkpt><trkpt lat="45.941509474876" lon="12.459408327778629"><ele>34.25</ele><time>2026-04-28T18:00:37Z</time></trkpt><trkpt lat="45.94149142852984" lon="12.459621912463648"><ele>34.0</ele><time>2026-04-28T18:00:38Z</time></trkpt><trkpt lat="45.94147242526378" lon="12.459858082234376"><ele>34.0</ele><time>2026-04-28T18:00:39Z</time></trkpt><trkpt lat="45.9414477548536" lon="12.460102286041769"><ele>34.0</ele><time>2026-04-28T18:00:40Z</time></trkpt><trkpt lat="45.9414192207798" lon="12.46035706038321"><ele>34.0</ele><time>2026-04-28T18:00:41Z</time></trkpt><trkpt lat="45.94138881479649" lon="12.460624520252079"><ele>34.333333333333336</ele><time>2026-04-28T18:00:42Z</time></trkpt><trkpt lat="45.94136066851457" lon="12.460890756206666"><ele>34.666666666666664</ele><time>2026-04-28T18:00:43Z</time></trkpt><trkpt lat="45.94133576964891" lon="12.461146826292733"><ele>35.0</ele><time>2026-04-28T18:00:44Z</time></trkpt><trkpt lat="45.94130554206027" lon="12.461414317718923"><ele>35.0</ele><time>2026-04-28T18:00:45Z</time></trkpt><trkpt lat="45.941279958888984" lon="12.461633710465916"><ele>35.0</ele><time>2026-04-28T18:00:46Z</time></trkpt><trkpt lat="45.94126398225636" lon="12.461808299604995"><ele>35.0</ele><time>2026-04-28T18:00:47Z</time></trkpt><trkpt lat="45.941259189432" lon="12.461966601731476"><ele>35.0</ele><time>2026-04-28T18:00:48Z</time></trkpt><trkpt lat="45.94130189182357" lon="12.462119112885196"><ele>34.75</ele><time>2026-04-28T18:00:48.999Z</time></trkpt><trkpt lat="45.941392761740644" lon="12.462267250886159"><ele>34.5</ele><time>2026-04-28T18:00:49.999Z</time></trkpt><trkpt lat="45.941514038147" lon="12.462403104381684"><ele>34.25</ele><time>2026-04-28T18:00:50.999Z</time></trkpt><trkpt lat="45.94161344238007" lon="12.462519042609356"><ele>34.0</ele><time>2026-04-28T18:00:51.999Z</time></trkpt><trkpt lat="45.94165072536265" lon="12.462657882169262"><ele>34.0</ele><time>2026-04-28T18:00:52.999Z</time></trkpt><trkpt lat="45.94161624255517" lon="12.46282965337939"><ele>34.0</ele><time>2026-04-28T18:00:53.999Z</time></trkpt><trkpt lat="45.94154212646937" lon="12.462959814801573"><ele>34.0</ele><time>2026-04-28T18:00:54.999Z</time></trkpt><trkpt lat="45.94145018855785" lon="12.463099349054593"><ele>34.0</ele><time>2026-04-28T18:00:55.999Z</time></trkpt><trkpt lat="45.94134829095206" lon="12.463280189519528"><ele>33.66666666666667</ele><time>2026-04-28T18:00:56.999Z</time></trkpt><trkpt lat="45.94124513369963" lon="12.463482756757072"><ele>33.333333333333336</ele><time>2026-04-28T18:00:57.999Z</time></trkpt><trkpt lat="45.941146133138695" lon="12.463693796966282"><ele>33.0</ele><time>2026-04-28T18:00:58.999Z</time></trkpt><trkpt lat="45.941038852506644" lon="12.46391312353362"><ele>33.0</ele><time>2026-04-28T18:00:59.999Z</time></trkpt><trkpt lat="45.94093553522" lon="12.46413738988826"><ele>33.0</ele><time>2026-04-28T18:01:00.999Z</time></trkpt><trkpt lat="45.94084061479311" lon="12.464338189021158"><ele>33.0</ele><time>2026-04-28T18:01:01.999Z</time></trkpt><trkpt lat="45.94076919633803" lon="12.46448416700567"><ele>33.0</ele><time>2026-04-28T18:01:02.999Z</time></trkpt><trkpt lat="45.94071188473691" lon="12.46460917871237"><ele>33.0</ele><time>2026-04-28T18:01:03.999Z</time></trkpt><trkpt lat="45.94067191737191" lon="12.464680334108474"><ele>33.0</ele><time>2026-04-28T18:01:04.999Z</time></trkpt><trkpt lat="45.940613185809916" lon="12.46464187202811"><ele>33.0</ele><time>2026-04-28T18:01:06.999Z</time></trkpt><trkpt lat="45.94060174255325" lon="12.464528507450758"><ele>33.0</ele><time>2026-04-28T18:01:07.999Z</time></trkpt><trkpt lat="45.94062071403739" lon="12.464345893192343"><ele>33.0</ele><time>2026-04-28T18:01:08.999Z</time></trkpt><trkpt lat="45.9406297475431" lon="12.464217896548343"><ele>33.0</ele><time>2026-04-28T18:01:09.999Z</time></trkpt><trkpt lat="45.940502566152176" lon="12.464095641292134"><ele>33.0</ele><time>2026-04-28T18:01:11.999Z</time></trkpt><trkpt lat="45.94043034359019" lon="12.464115042230752"><ele>33.0</ele><time>2026-04-28T18:01:13.999Z</time></trkpt><trkpt lat="45.94041079453698" lon="12.464269848935036"><ele>33.0</ele><time>2026-04-28T18:01:15.999Z</time></trkpt><trkpt lat="45.940380509802345" lon="12.464447436555261"><ele>33.0</ele><time>2026-04-28T18:01:17.999Z</time></trkpt><trkpt lat="45.94034791158447" lon="12.464546765535603"><ele>33.0</ele><time>2026-04-28T18:01:18.999Z</time></trkpt><trkpt lat="45.94033002818972" lon="12.464654645840302"><ele>33.0</ele><time>2026-04-28T18:01:20.999Z</time></trkpt><trkpt lat="45.94027452400773" lon="12.464762035762037"><ele>33.0</ele><time>2026-04-28T18:01:21.999Z</time></trkpt><trkpt lat="45.9402065708876" lon="12.464932166973599"><ele>33.0</ele><time>2026-04-28T18:01:22.999Z</time></trkpt><trkpt lat="45.94011325693474" lon="12.465106604110625"><ele>32.666666666666664</ele><time>2026-04-28T18:01:23.999Z</time></trkpt><trkpt lat="45.93998679302966" lon="12.465265262217999"><ele>32.33333333333333</ele><time>2026-04-28T18:01:24.999Z</time></trkpt><trkpt lat="45.93984194367845" lon="12.465405229276463"><ele>32.0</ele><time>2026-04-28T18:01:25.999Z</time></trkpt><trkpt lat="45.939752458430426" lon="12.46554553471857"><ele>31.75</ele><time>2026-04-28T18:01:26.999Z</time></trkpt><trkpt lat="45.93969260229135" lon="12.465687606249052"><ele>31.5</ele><time>2026-04-28T18:01:27.999Z</time></trkpt><trkpt lat="45.93966063207012" lon="12.465834847223753"><ele>31.25</ele><time>2026-04-28T18:01:28.999Z</time></trkpt><trkpt lat="45.939657536746196" lon="12.465986878927792"><ele>31.0</ele><time>2026-04-28T18:01:29.999Z</time></trkpt><trkpt lat="45.93966794449433" lon="12.466171849956046"><ele>31.75</ele><time>2026-04-28T18:01:30.999Z</time></trkpt><trkpt lat="45.939698954050016" lon="12.466401933600272"><ele>32.5</ele><time>2026-04-28T18:01:31.999Z</time></trkpt><trkpt lat="45.93973815792048" lon="12.466602251672565"><ele>33.25</ele><time>2026-04-28T18:01:32.999Z</time></trkpt><trkpt lat="45.939758164338656" lon="12.466708094516498"><ele>34.0</ele><time>2026-04-28T18:01:33.999Z</time></trkpt><trkpt lat="45.93982589351119" lon="12.46672942870277"><ele>34.0</ele><time>2026-04-28T18:01:37.999Z</time></trkpt><trkpt lat="45.93988765150229" lon="12.466762785159274"><ele>34.0</ele><time>2026-04-28T18:01:43.999Z</time></trkpt><trkpt lat="45.93982057254984" lon="12.466789050146215"><ele>34.0</ele><time>2026-04-28T18:02:04.998Z</time></trkpt><trkpt lat="45.939757342423995" lon="12.46686243007283"><ele>34.0</ele><time>2026-04-28T18:02:07.998Z</time></trkpt><trkpt lat="45.9397832178217" lon="12.467006333499068"><ele>34.0</ele><time>2026-04-28T18:02:08.998Z</time></trkpt><trkpt lat="45.939816304258656" lon="12.467180660758821"><ele>34.0</ele><time>2026-04-28T18:02:09.998Z</time></trkpt><trkpt lat="45.93982110116372" lon="12.467362525009657"><ele>33.6</ele><time>2026-04-28T18:02:10.998Z</time></trkpt><trkpt lat="45.93972235182233" lon="12.467526575878692"><ele>33.2</ele><time>2026-04-28T18:02:12.998Z</time></trkpt><trkpt lat="45.939674839810046" lon="12.467609697990538"><ele>32.800000000000004</ele><time>2026-04-28T18:02:13.998Z</time></trkpt><trkpt lat="45.939633144264675" lon="12.467679046357999"><ele>32.4</ele><time>2026-04-28T18:02:14.998Z</time></trkpt><trkpt lat="45.93959418997489" lon="12.467756832419928"><ele>32.0</ele><time>2026-04-28T18:02:15.998Z</time></trkpt><trkpt lat="45.93954125021271" lon="12.467867666055957"><ele>32.25</ele><time>2026-04-28T18:02:16.998Z</time></trkpt><trkpt lat="45.93948195412602" lon="12.468022352876968"><ele>32.5</ele><time>2026-04-28T18:02:17.998Z</time></trkpt><trkpt lat="45.93941892247309" lon="12.468185567660226"><ele>32.75</ele><time>2026-04-28T18:02:18.998Z</time></trkpt><trkpt lat="45.93936249679483" lon="12.468371309489623"><ele>33.0</ele><time>2026-04-28T18:02:19.998Z</time></trkpt><trkpt lat="45.93932800902443" lon="12.468521263601067"><ele>33.0</ele><time>2026-04-28T18:02:20.998Z</time></trkpt><trkpt lat="45.939308161137824" lon="12.46873250618947"><ele>33.0</ele><time>2026-04-28T18:02:21.998Z</time></trkpt><trkpt lat="45.93929298561486" lon="12.468920486213545"><ele>33.0</ele><time>2026-04-28T18:02:22.998Z</time></trkpt><trkpt lat="45.93927178507951" lon="12.469073788808865"><ele>33.0</ele><time>2026-04-28T18:02:23.998Z</time></trkpt><trkpt lat="45.93926142796893" lon="12.469196727972651"><ele>32.5</ele><time>2026-04-28T18:02:24.998Z</time></trkpt><trkpt lat="45.9392521745052" lon="12.469364052934575"><ele>32.0</ele><time>2026-04-28T18:02:25.998Z</time></trkpt><trkpt lat="45.93922850743556" lon="12.469571332342186"><ele>31.5</ele><time>2026-04-28T18:02:26.998Z</time></trkpt><trkpt lat="45.93919769849968" lon="12.469784205438193"><ele>31.0</ele><time>2026-04-28T18:02:27.998Z</time></trkpt><trkpt lat="45.93916954015196" lon="12.46998930333982"><ele>31.0</ele><time>2026-04-28T18:02:28.998Z</time></trkpt><trkpt lat="45.93913614885454" lon="12.470220748894919"><ele>31.0</ele><time>2026-04-28T18:02:29.998Z</time></trkpt><trkpt lat="45.93910312726569" lon="12.470470594245278"><ele>31.0</ele><time>2026-04-28T18:02:30.998Z</time></trkpt><trkpt lat="45.939068977748256" lon="12.47072656773093"><ele>31.0</ele><time>2026-04-28T18:02:31.998Z</time></trkpt><trkpt lat="45.939032041634" lon="12.470987084882273"><ele>31.0</ele><time>2026-04-28T18:02:32.998Z</time></trkpt><trkpt lat="45.93900423415059" lon="12.471211598030584"><ele>31.0</ele><time>2026-04-28T18:02:33.998Z</time></trkpt><trkpt lat="45.93897820963257" lon="12.471409473861504"><ele>31.0</ele><time>2026-04-28T18:02:34.998Z</time></trkpt><trkpt lat="45.93895879641945" lon="12.47154990038282"><ele>31.0</ele><time>2026-04-28T18:02:35.998Z</time></trkpt><trkpt lat="45.93893979117016" lon="12.471637591123896"><ele>31.0</ele><time>2026-04-28T18:02:36.998Z</time></trkpt><trkpt lat="45.939034122109234" lon="12.471655576358696"><ele>31.0</ele><time>2026-04-28T18:02:40Z</time></trkpt><trkpt lat="45.93900168584243" lon="12.4718795081533"><ele>31.0</ele><time>2026-04-28T18:02:48.999Z</time></trkpt><trkpt lat="45.93898140607251" lon="12.471982086013977"><ele>31.0</ele><time>2026-04-28T18:02:49.999Z</time></trkpt><trkpt lat="45.9389447427379" lon="12.472185921201769"><ele>31.0</ele><time>2026-04-28T18:03:08.999Z</time></trkpt><trkpt lat="45.9389133677126" lon="12.472367714370016"><ele>31.0</ele><time>2026-04-28T18:03:09.999Z</time></trkpt><trkpt lat="45.93888204308876" lon="12.472517411064642"><ele>31.0</ele><time>2026-04-28T18:03:10.999Z</time></trkpt><trkpt lat="45.93885161606485" lon="12.472648378658587"><ele>31.0</ele><time>2026-04-28T18:03:11.999Z</time></trkpt><trkpt lat="45.93881331046235" lon="12.472797410437474"><ele>31.0</ele><time>2026-04-28T18:03:12.999Z</time></trkpt><trkpt lat="45.93876888239937" lon="12.472954478497021"><ele>31.0</ele><time>2026-04-28T18:03:13.999Z</time></trkpt><trkpt lat="45.9387162954597" lon="12.473117143955044"><ele>31.0</ele><time>2026-04-28T18:03:14.999Z</time></trkpt><trkpt lat="45.93864457807781" lon="12.473310138883624"><ele>31.200000000000003</ele><time>2026-04-28T18:03:15.999Z</time></trkpt><trkpt lat="45.93858357330275" lon="12.473464310898295"><ele>31.400000000000002</ele><time>2026-04-28T18:03:16.999Z</time></trkpt><trkpt lat="45.938535317958234" lon="12.473590123770792"><ele>31.6</ele><time>2026-04-28T18:03:17.999Z</time></trkpt><trkpt lat="45.9384788146697" lon="12.473729280111526"><ele>31.8</ele><time>2026-04-28T18:03:18.999Z</time></trkpt><trkpt lat="45.93842411977384" lon="12.473872753216398"><ele>32.0</ele><time>2026-04-28T18:03:19.999Z</time></trkpt><trkpt lat="45.93835421089155" lon="12.474047536836938"><ele>32.25</ele><time>2026-04-28T18:03:20.999Z</time></trkpt><trkpt lat="45.93830121003938" lon="12.474187502262662"><ele>32.5</ele><time>2026-04-28T18:03:21.999Z</time></trkpt><trkpt lat="45.938242367387645" lon="12.474337587659655"><ele>32.75</ele><time>2026-04-28T18:03:22.999Z</time></trkpt><trkpt lat="45.93817850792094" lon="12.474497343629942"><ele>33.0</ele><time>2026-04-28T18:03:23.999Z</time></trkpt><trkpt lat="45.9381086504428" lon="12.474672405251471"><ele>32.0</ele><time>2026-04-28T18:03:24.999Z</time></trkpt><trkpt lat="45.938022846767545" lon="12.474890725548722"><ele>31.0</ele><time>2026-04-28T18:03:25.999Z</time></trkpt><trkpt lat="45.937936375767826" lon="12.475099922307102"><ele>30.0</ele><time>2026-04-28T18:03:26.999Z</time></trkpt><trkpt lat="45.93787176843934" lon="12.47526065613406"><ele>30.0</ele><time>2026-04-28T18:03:27.999Z</time></trkpt><trkpt lat="45.93781912043091" lon="12.475399815174855"><ele>30.0</ele><time>2026-04-28T18:03:28.999Z</time></trkpt><trkpt lat="45.93776370414486" lon="12.475541647344867"><ele>30.0</ele><time>2026-04-28T18:03:29.999Z</time></trkpt><trkpt lat="45.93772869536862" lon="12.47563009683161"><ele>30.0</ele><time>2026-04-28T18:03:30.999Z</time></trkpt><trkpt lat="45.937689487354554" lon="12.475724007809056"><ele>30.0</ele><time>2026-04-28T18:03:32.999Z</time></trkpt><trkpt lat="45.93757259071241" lon="12.475704736500807"><ele>29.75</ele><time>2026-04-28T18:03:49.999Z</time></trkpt><trkpt lat="45.937463861214056" lon="12.475720410035533"><ele>29.5</ele><time>2026-04-28T18:03:50.999Z</time></trkpt><trkpt lat="45.937320742049685" lon="12.475748050318389"><ele>29.25</ele><time>2026-04-28T18:03:51.999Z</time></trkpt><trkpt lat="45.93716917010435" lon="12.475797694169216"><ele>29.0</ele><time>2026-04-28T18:03:52.999Z</time></trkpt><trkpt lat="45.93702935455091" lon="12.475819172300948"><ele>29.0</ele><time>2026-04-28T18:03:53.999Z</time></trkpt><trkpt lat="45.93692269677536" lon="12.47585003946929"><ele>29.0</ele><time>2026-04-28T18:03:54.999Z</time></trkpt><trkpt lat="45.93681618861165" lon="12.475869129063158"><ele>29.0</ele><time>2026-04-28T18:03:55.999Z</time></trkpt><trkpt lat="45.93671641639084" lon="12.475885842308704"><ele>29.0</ele><time>2026-04-28T18:03:56.999Z</time></trkpt><trkpt lat="45.93663101326915" lon="12.475904214433257"><ele>29.0</ele><time>2026-04-28T18:03:57.999Z</time></trkpt><trkpt lat="45.93656939335496" lon="12.47570972466332"><ele>29.0</ele><time>2026-04-28T18:04:03.999Z</time></trkpt><trkpt lat="45.936568188189504" lon="12.475581990618055"><ele>29.0</ele><time>2026-04-28T18:04:04.999Z</time></trkpt><trkpt lat="45.936555279680974" lon="12.475432105316612"><ele>29.0</ele><time>2026-04-28T18:04:05.999Z</time></trkpt><trkpt lat="45.93653865585313" lon="12.475269765684732"><ele>29.0</ele><time>2026-04-28T18:04:06.999Z</time></trkpt><trkpt lat="45.936519788076964" lon="12.475067574817736"><ele>29.666666666666664</ele><time>2026-04-28T18:04:07.999Z</time></trkpt><trkpt lat="45.93650339185679" lon="12.474859023279906"><ele>30.333333333333336</ele><time>2026-04-28T18:04:08.999Z</time></trkpt><trkpt lat="45.93648472713644" lon="12.474603703497118"><ele>31.0</ele><time>2026-04-28T18:04:09.999Z</time></trkpt><trkpt lat="45.93648734371807" lon="12.474341360100137"><ele>31.666666666666668</ele><time>2026-04-28T18:04:10.999Z</time></trkpt><trkpt lat="45.93652037350056" lon="12.474068506708353"><ele>32.333333333333336</ele><time>2026-04-28T18:04:11.999Z</time></trkpt><trkpt lat="45.93652604510791" lon="12.473788974934472"><ele>33.0</ele><time>2026-04-28T18:04:12.999Z</time></trkpt><trkpt lat="45.936551788508645" lon="12.473503813732668"><ele>33.0</ele><time>2026-04-28T18:04:13.999Z</time></trkpt><trkpt lat="45.936567441722" lon="12.473216427684099"><ele>33.0</ele><time>2026-04-28T18:04:14.999Z</time></trkpt><trkpt lat="45.936581472238004" lon="12.472914765583262"><ele>33.0</ele><time>2026-04-28T18:04:15.999Z</time></trkpt><trkpt lat="45.93659231142755" lon="12.472618294412085"><ele>33.0</ele><time>2026-04-28T18:04:16.999Z</time></trkpt><trkpt lat="45.936603785365335" lon="12.472304461647346"><ele>33.0</ele><time>2026-04-28T18:04:17.999Z</time></trkpt><trkpt lat="45.93661438435728" lon="12.472024619783072"><ele>33.0</ele><time>2026-04-28T18:04:18.999Z</time></trkpt><trkpt lat="45.93662283488211" lon="12.471805516229747"><ele>32.4</ele><time>2026-04-28T18:04:19.999Z</time></trkpt><trkpt lat="45.93661394836744" lon="12.471614834397657"><ele>31.799999999999997</ele><time>2026-04-28T18:04:20.999Z</time></trkpt><trkpt lat="45.936619522184884" lon="12.471468005519188"><ele>31.2</ele><time>2026-04-28T18:04:21.999Z</time></trkpt><trkpt lat="45.936640268497314" lon="12.471353500616985"><ele>30.6</ele><time>2026-04-28T18:04:22.999Z</time></trkpt><trkpt lat="45.936644433170414" lon="12.471245519876135"><ele>30.0</ele><time>2026-04-28T18:04:24.998Z</time></trkpt><trkpt lat="45.93664806528625" lon="12.4711523325849"><ele>30.0</ele><time>2026-04-28T18:04:27.998Z</time></trkpt><trkpt lat="45.93634025102417" lon="12.471176676648522"><ele>30.0</ele><time>2026-04-28T18:04:30.998Z</time></trkpt><trkpt lat="45.93621558494494" lon="12.471161009016647"><ele>30.0</ele><time>2026-04-28T18:04:31.998Z</time></trkpt><trkpt lat="45.93606180581055" lon="12.47114168256594"><ele>30.0</ele><time>2026-04-28T18:04:32.998Z</time></trkpt><trkpt lat="45.935916620462685" lon="12.471123436169403"><ele>30.0</ele><time>2026-04-28T18:04:33.998Z</time></trkpt><trkpt lat="45.93574534473591" lon="12.471103721480834"><ele>30.0</ele><time>2026-04-28T18:04:34.998Z</time></trkpt><trkpt lat="45.93558334202201" lon="12.471087236496052"><ele>30.0</ele><time>2026-04-28T18:04:35.998Z</time></trkpt><trkpt lat="45.93542569671662" lon="12.47107119491479"><ele>30.0</ele><time>2026-04-28T18:04:36.998Z</time></trkpt><trkpt lat="45.93530154028847" lon="12.471056657243437"><ele>30.0</ele><time>2026-04-28T18:04:37.998Z</time></trkpt><trkpt lat="45.93517474662236" lon="12.4710445707455"><ele>30.0</ele><time>2026-04-28T18:04:38.998Z</time></trkpt><trkpt lat="45.935042928451146" lon="12.471041244012245"><ele>30.5</ele><time>2026-04-28T18:04:39.998Z</time></trkpt><trkpt lat="45.93492976289168" lon="12.471048979533363"><ele>31.0</ele><time>2026-04-28T18:04:40.998Z</time></trkpt><trkpt lat="45.93479834457703" lon="12.471062837151546"><ele>31.5</ele><time>2026-04-28T18:04:41.998Z</time></trkpt><trkpt lat="45.93465525752217" lon="12.471076844238784"><ele>32.0</ele><time>2026-04-28T18:04:42.998Z</time></trkpt><trkpt lat="45.934522988427645" lon="12.471089126133895"><ele>32.0</ele><time>2026-04-28T18:04:43.998Z</time></trkpt><trkpt lat="45.934428248050516" lon="12.47109833879317"><ele>32.0</ele><time>2026-04-28T18:04:44.998Z</time></trkpt><trkpt lat="45.934341433459224" lon="12.471106780734388"><ele>32.0</ele><time>2026-04-28T18:04:46Z</time></trkpt><trkpt lat="45.93425232114928" lon="12.471113020806573"><ele>32.0</ele><time>2026-04-28T18:04:47Z</time></trkpt><trkpt lat="45.934144363698074" lon="12.471116330759017"><ele>32.0</ele><time>2026-04-28T18:04:49Z</time></trkpt><trkpt lat="45.93406208608547" lon="12.471127321115382"><ele>31.833333333333332</ele><time>2026-04-28T18:04:52Z</time></trkpt><trkpt lat="45.93399323500455" lon="12.471104763322401"><ele>31.666666666666664</ele><time>2026-04-28T18:04:55Z</time></trkpt><trkpt lat="45.93388830961213" lon="12.470994591840771"><ele>31.5</ele><time>2026-04-28T18:04:57Z</time></trkpt><trkpt lat="45.93381992184619" lon="12.470929846660665"><ele>31.333333333333336</ele><time>2026-04-28T18:04:59Z</time></trkpt><trkpt lat="45.93375070168712" lon="12.470857437908512"><ele>31.166666666666668</ele><time>2026-04-28T18:05:09Z</time></trkpt><trkpt lat="45.9336904761091" lon="12.470792976982658"><ele>31.0</ele><time>2026-04-28T18:05:10Z</time></trkpt><trkpt lat="45.93362428924754" lon="12.470748122171305"><ele>31.0</ele><time>2026-04-28T18:05:12Z</time></trkpt><trkpt lat="45.933541102985664" lon="12.47062706794012"><ele>31.0</ele><time>2026-04-28T18:05:13.999Z</time></trkpt><trkpt lat="45.93347660736551" lon="12.470555315562306"><ele>31.0</ele><time>2026-04-28T18:05:14.999Z</time></trkpt><trkpt lat="45.933404789172364" lon="12.470475600032199"><ele>31.0</ele><time>2026-04-28T18:05:15.999Z</time></trkpt><trkpt lat="45.933335015174066" lon="12.470395887083372"><ele>31.0</ele><time>2026-04-28T18:05:16.999Z</time></trkpt><trkpt lat="45.933262404144735" lon="12.470309883859198"><ele>30.833333333333336</ele><time>2026-04-28T18:05:18.999Z</time></trkpt><trkpt lat="45.93321074129395" lon="12.470243722910203"><ele>30.666666666666668</ele><time>2026-04-28T18:05:20.999Z</time></trkpt><trkpt lat="45.93315337512149" lon="12.470189400527042"><ele>30.5</ele><time>2026-04-28T18:05:39.999Z</time></trkpt><trkpt lat="45.9330813783039" lon="12.470109513730154"><ele>30.333333333333336</ele><time>2026-04-28T18:05:42.999Z</time></trkpt><trkpt lat="45.93302450042823" lon="12.47005280282363"><ele>30.166666666666668</ele><time>2026-04-28T18:05:43.999Z</time></trkpt><trkpt lat="45.93292522665685" lon="12.46995231389451"><ele>30.0</ele><time>2026-04-28T18:05:44.999Z</time></trkpt><trkpt lat="45.932796691331106" lon="12.469838152027977"><ele>30.0</ele><time>2026-04-28T18:05:45.999Z</time></trkpt><trkpt lat="45.93265461970145" lon="12.469758971662477"><ele>30.0</ele><time>2026-04-28T18:05:46.999Z</time></trkpt><trkpt lat="45.93253809561588" lon="12.469683546130737"><ele>30.0</ele><time>2026-04-28T18:05:47.999Z</time></trkpt><trkpt lat="45.932434613549084" lon="12.469636283168954"><ele>30.0</ele><time>2026-04-28T18:05:48.999Z</time></trkpt><trkpt lat="45.93234223171608" lon="12.469578970340146"><ele>29.333333333333336</ele><time>2026-04-28T18:05:49.999Z</time></trkpt><trkpt lat="45.93226752125557" lon="12.469509266905616"><ele>28.666666666666668</ele><time>2026-04-28T18:05:50.999Z</time></trkpt><trkpt lat="45.932178663801956" lon="12.469422258128597"><ele>28.0</ele><time>2026-04-28T18:05:52.999Z</time></trkpt><trkpt lat="45.93248750873016" lon="12.468835254009214"><ele>28.0</ele><time>2026-04-28T18:06:00.999Z</time></trkpt><trkpt lat="45.932573506617764" lon="12.468636225188583"><ele>28.0</ele><time>2026-04-28T18:06:01.999Z</time></trkpt><trkpt lat="45.93266675960594" lon="12.46845881566593"><ele>28.0</ele><time>2026-04-28T18:06:02.999Z</time></trkpt><trkpt lat="45.932748500954176" lon="12.468318210690713"><ele>28.0</ele><time>2026-04-28T18:06:03.999Z</time></trkpt><trkpt lat="45.93281866304411" lon="12.468187704631504"><ele>28.0</ele><time>2026-04-28T18:06:04.999Z</time></trkpt><trkpt lat="45.932897488435515" lon="12.46803117360491"><ele>28.0</ele><time>2026-04-28T18:06:05.999Z</time></trkpt><trkpt lat="45.932975880034164" lon="12.46788004134917"><ele>28.0</ele><time>2026-04-28T18:06:06.999Z</time></trkpt><trkpt lat="45.933056008034505" lon="12.46773552436028"><ele>28.0</ele><time>2026-04-28T18:06:07.999Z</time></trkpt><trkpt lat="45.93314488865723" lon="12.467588919787987"><ele>28.0</ele><time>2026-04-28T18:06:08.999Z</time></trkpt><trkpt lat="45.93322621376497" lon="12.467434123409529"><ele>28.0</ele><time>2026-04-28T18:06:09.999Z</time></trkpt><trkpt lat="45.933296535019934" lon="12.467294349345089"><ele>28.0</ele><time>2026-04-28T18:06:10.999Z</time></trkpt><trkpt lat="45.933367391388146" lon="12.467161475493432"><ele>28.0</ele><time>2026-04-28T18:06:11.999Z</time></trkpt><trkpt lat="45.933416654239046" lon="12.467065409409809"><ele>28.333333333333336</ele><time>2026-04-28T18:06:12.999Z</time></trkpt><trkpt lat="45.93346288192615" lon="12.466969504901478"><ele>28.666666666666668</ele><time>2026-04-28T18:06:13.999Z</time></trkpt><trkpt lat="45.93351458933763" lon="12.466880180253565"><ele>29.0</ele><time>2026-04-28T18:06:14.999Z</time></trkpt><trkpt lat="45.93355951403132" lon="12.466812286580485"><ele>29.333333333333336</ele><time>2026-04-28T18:06:15.999Z</time></trkpt><trkpt lat="45.933622495877664" lon="12.466763353602627"><ele>29.666666666666668</ele><time>2026-04-28T18:06:17.999Z</time></trkpt><trkpt lat="45.933700010283026" lon="12.466859332177682"><ele>30.0</ele><time>2026-04-28T18:06:19.999Z</time></trkpt><trkpt lat="45.9337590506397" lon="12.466921111288599"><ele>30.0</ele><time>2026-04-28T18:06:20.999Z</time></trkpt><trkpt lat="45.93385047112315" lon="12.466989924008004"><ele>30.0</ele><time>2026-04-28T18:06:21.999Z</time></trkpt><trkpt lat="45.93395343074323" lon="12.467067449026066"><ele>30.0</ele><time>2026-04-28T18:06:22.999Z</time></trkpt><trkpt lat="45.934059907380245" lon="12.467153061525995"><ele>30.0</ele><time>2026-04-28T18:06:23.999Z</time></trkpt><trkpt lat="45.9341770671517" lon="12.46724446642925"><ele>29.75</ele><time>2026-04-28T18:06:24.999Z</time></trkpt><trkpt lat="45.93430360877841" lon="12.46734436694949"><ele>29.5</ele><time>2026-04-28T18:06:25.999Z</time></trkpt><trkpt lat="45.9344295425703" lon="12.467445771856063"><ele>29.25</ele><time>2026-04-28T18:06:26.999Z</time></trkpt><trkpt lat="45.934515079099484" lon="12.467521374941201"><ele>29.0</ele><time>2026-04-28T18:06:27.999Z</time></trkpt><trkpt lat="45.93458416783763" lon="12.46758317195993"><ele>29.0</ele><time>2026-04-28T18:06:28.999Z</time></trkpt><trkpt lat="45.9346415410152" lon="12.467642756364667"><ele>29.0</ele><time>2026-04-28T18:06:29.999Z</time></trkpt><trkpt lat="45.934696301687566" lon="12.467735118230825"><ele>29.0</ele><time>2026-04-28T18:06:31.998Z</time></trkpt><trkpt lat="45.934739952815725" lon="12.467660013878014"><ele>29.0</ele><time>2026-04-28T18:06:34.998Z</time></trkpt><trkpt lat="45.93490225680194" lon="12.46782936246823"><ele>29.0</ele><time>2026-04-28T18:06:35.998Z</time></trkpt><trkpt lat="45.93496195012728" lon="12.467766567488075"><ele>28.999999999999996</ele><time>2026-04-28T18:06:36.998Z</time></trkpt><trkpt lat="45.93502254151519" lon="12.467702829231557"><ele>29.0</ele><time>2026-04-28T18:06:37.998Z</time></trkpt><trkpt lat="45.9350855341446" lon="12.467640732792752"><ele>29.0</ele><time>2026-04-28T18:06:38.998Z</time></trkpt><trkpt lat="45.93516449338846" lon="12.46756257050339"><ele>29.0</ele><time>2026-04-28T18:06:39.998Z</time></trkpt><trkpt lat="45.935234161853096" lon="12.467498711782678"><ele>28.999999999999996</ele><time>2026-04-28T18:06:40.998Z</time></trkpt><trkpt lat="45.93529195788789" lon="12.467447532217934"><ele>29.0</ele><time>2026-04-28T18:06:41.998Z</time></trkpt><trkpt lat="45.935363665312046" lon="12.467367004494111"><ele>29.0</ele><time>2026-04-28T18:06:42.998Z</time></trkpt><trkpt lat="45.93542843923954" lon="12.46729456808806"><ele>29.0</ele><time>2026-04-28T18:06:43.998Z</time></trkpt><trkpt lat="45.93550992100772" lon="12.467207025414742"><ele>29.0</ele><time>2026-04-28T18:06:44.998Z</time></trkpt><trkpt lat="45.93559456829624" lon="12.46711094027026"><ele>29.0</ele><time>2026-04-28T18:06:45.998Z</time></trkpt><trkpt lat="45.93567691266855" lon="12.467018807273424"><ele>29.0</ele><time>2026-04-28T18:06:46.998Z</time></trkpt><trkpt lat="45.93547710772546" lon="12.4660702376961"><ele>30.0</ele><time>2026-04-28T18:06:47.998Z</time></trkpt><trkpt lat="45.93551988390839" lon="12.46596634381051"><ele>31.0</ele><time>2026-04-28T18:06:48.998Z</time></trkpt><trkpt lat="45.935561399527806" lon="12.465870628963822"><ele>32.0</ele><time>2026-04-28T18:06:49.998Z</time></trkpt><trkpt lat="45.935600946018965" lon="12.465774189325646"><ele>33.0</ele><time>2026-04-28T18:06:50.998Z</time></trkpt><trkpt lat="45.935674161319696" lon="12.465592076948331"><ele>34.0</ele><time>2026-04-28T18:06:53Z</time></trkpt><trkpt lat="45.9357161958858" lon="12.465497370142929"><ele>33.833333333333336</ele><time>2026-04-28T18:06:54Z</time></trkpt><trkpt lat="45.935757679942505" lon="12.465404713419622"><ele>33.66666666666667</ele><time>2026-04-28T18:06:55Z</time></trkpt><trkpt lat="45.93581785705908" lon="12.465279012770765"><ele>33.5</ele><time>2026-04-28T18:06:56Z</time></trkpt><trkpt lat="45.93586198024812" lon="12.465176517878227"><ele>33.333333333333336</ele><time>2026-04-28T18:06:57Z</time></trkpt><trkpt lat="45.93590292681669" lon="12.465069883626095"><ele>33.166666666666664</ele><time>2026-04-28T18:06:58Z</time></trkpt><trkpt lat="45.93594503150301" lon="12.46495972827675"><ele>33.0</ele><time>2026-04-28T18:06:59Z</time></trkpt><trkpt lat="45.93598818397909" lon="12.464848831808974"><ele>33.0</ele><time>2026-04-28T18:07:00Z</time></trkpt><trkpt lat="45.9360359878726" lon="12.464743438885842"><ele>33.0</ele><time>2026-04-28T18:07:01Z</time></trkpt><trkpt lat="45.936082578976" lon="12.464630470408741"><ele>33.0</ele><time>2026-04-28T18:07:02Z</time></trkpt><trkpt lat="45.93612257537984" lon="12.464521484559263"><ele>33.0</ele><time>2026-04-28T18:07:03Z</time></trkpt><trkpt lat="45.93617198119494" lon="12.464418738090338"><ele>33.0</ele><time>2026-04-28T18:07:04Z</time></trkpt><trkpt lat="45.936220900950765" lon="12.464319215124448"><ele>33.0</ele><time>2026-04-28T18:07:05Z</time></trkpt><trkpt lat="45.93626076469553" lon="12.464223277872792"><ele>33.0</ele><time>2026-04-28T18:07:06Z</time></trkpt><trkpt lat="45.936292530412324" lon="12.464142958898904"><ele>33.0</ele><time>2026-04-28T18:07:07Z</time></trkpt><trkpt lat="45.93635143802803" lon="12.464011842642643"><ele>33.0</ele><time>2026-04-28T18:07:09Z</time></trkpt><trkpt lat="45.9363965090304" lon="12.463898979124323"><ele>33.0</ele><time>2026-04-28T18:07:11Z</time></trkpt><trkpt lat="45.93643340129292" lon="12.463818302852463"><ele>33.0</ele><time>2026-04-28T18:07:13Z</time></trkpt><trkpt lat="45.93646567957219" lon="12.46371811630345"><ele>33.0</ele><time>2026-04-28T18:07:52.999Z</time></trkpt><trkpt lat="45.9365085538984" lon="12.463634468937194"><ele>32.8</ele><time>2026-04-28T18:07:54.999Z</time></trkpt><trkpt lat="45.93655955695506" lon="12.463479637805685"><ele>32.599999999999994</ele><time>2026-04-28T18:07:56.999Z</time></trkpt><trkpt lat="45.936623679342446" lon="12.463360097412654"><ele>32.400000000000006</ele><time>2026-04-28T18:07:58.999Z</time></trkpt><trkpt lat="45.93669473582089" lon="12.463187771323598"><ele>32.2</ele><time>2026-04-28T18:08:00.999Z</time></trkpt><trkpt lat="45.93673698610977" lon="12.46309723980863"><ele>32.0</ele><time>2026-04-28T18:08:01.999Z</time></trkpt><trkpt lat="45.93702532382177" lon="12.463044810361936"><ele>31.666666666666664</ele><time>2026-04-28T18:08:03.999Z</time></trkpt><trkpt lat="45.937103244554095" lon="12.462894029017036"><ele>31.333333333333336</ele><time>2026-04-28T18:08:05.999Z</time></trkpt><trkpt lat="45.93719434096139" lon="12.462795080519548"><ele>31.0</ele><time>2026-04-28T18:08:07.999Z</time></trkpt><trkpt lat="45.937025188074" lon="12.462378147383157"><ele>31.0</ele><time>2026-04-28T18:08:08.999Z</time></trkpt><trkpt lat="45.937063976963096" lon="12.462286465521489"><ele>31.0</ele><time>2026-04-28T18:08:09.999Z</time></trkpt><trkpt lat="45.937104985013214" lon="12.462199779358983"><ele>31.0</ele><time>2026-04-28T18:08:10.999Z</time></trkpt><trkpt lat="45.93714184964762" lon="12.462111643414293"><ele>31.0</ele><time>2026-04-28T18:08:11.999Z</time></trkpt><trkpt lat="45.937478407856176" lon="12.462045869112478"><ele>31.166666666666668</ele><time>2026-04-28T18:08:13.999Z</time></trkpt><trkpt lat="45.93751506832241" lon="12.461914506615178"><ele>31.333333333333336</ele><time>2026-04-28T18:08:14.999Z</time></trkpt><trkpt lat="45.937546388333" lon="12.461812234542377"><ele>31.5</ele><time>2026-04-28T18:08:15.999Z</time></trkpt><trkpt lat="45.93757302726216" lon="12.46172524765764"><ele>31.666666666666664</ele><time>2026-04-28T18:08:16.999Z</time></trkpt><trkpt lat="45.93759886543108" lon="12.461640875784592"><ele>31.833333333333332</ele><time>2026-04-28T18:08:17.999Z</time></trkpt><trkpt lat="45.93762886809832" lon="12.461542905112093"><ele>32.0</ele><time>2026-04-28T18:08:18.999Z</time></trkpt><trkpt lat="45.93768529815538" lon="12.461358638477874"><ele>31.999999999999996</ele><time>2026-04-28T18:08:20.999Z</time></trkpt><trkpt lat="45.93771262175842" lon="12.461265451509794"><ele>32.0</ele><time>2026-04-28T18:08:21.999Z</time></trkpt><trkpt lat="45.937743672604306" lon="12.461159400346945"><ele>32.0</ele><time>2026-04-28T18:08:22.999Z</time></trkpt><trkpt lat="45.9377877555792" lon="12.461006834921696"><ele>32.0</ele><time>2026-04-28T18:08:24.999Z</time></trkpt><trkpt lat="45.93781780630345" lon="12.460910073323856"><ele>31.999999999999996</ele><time>2026-04-28T18:08:25.999Z</time></trkpt><trkpt lat="45.937860223947766" lon="12.460794161306042"><ele>32.0</ele><time>2026-04-28T18:08:27.999Z</time></trkpt><trkpt lat="45.93790012698392" lon="12.460715927545266"><ele>32.0</ele><time>2026-04-28T18:08:28.999Z</time></trkpt><trkpt lat="45.93798858460888" lon="12.46063021846265"><ele>32.0</ele><time>2026-04-28T18:08:30.999Z</time></trkpt><trkpt lat="45.93807969577292" lon="12.460557333119755"><ele>32.0</ele><time>2026-04-28T18:08:32.999Z</time></trkpt><trkpt lat="45.9381376882342" lon="12.460521104331153"><ele>32.0</ele><time>2026-04-28T18:08:33.999Z</time></trkpt><trkpt lat="45.93821775859258" lon="12.460483939724181"><ele>32.0</ele><time>2026-04-28T18:08:35.999Z</time></trkpt><trkpt lat="45.93831351622588" lon="12.460442041113245"><ele>32.25</ele><time>2026-04-28T18:08:37.999Z</time></trkpt><trkpt lat="45.93840285015164" lon="12.460403763334469"><ele>32.5</ele><time>2026-04-28T18:08:39.999Z</time></trkpt><trkpt lat="45.938485347022336" lon="12.46036841516159"><ele>32.75</ele><time>2026-04-28T18:08:41.999Z</time></trkpt><trkpt lat="45.93854797060918" lon="12.460341412050491"><ele>33.0</ele><time>2026-04-28T18:08:45.998Z</time></trkpt><trkpt lat="45.93841545992282" lon="12.459678672540225"><ele>33.14285714285714</ele><time>2026-04-28T18:08:48.998Z</time></trkpt><trkpt lat="45.938462902996264" lon="12.45961011074053"><ele>33.285714285714285</ele><time>2026-04-28T18:08:51.998Z</time></trkpt><trkpt lat="45.93853521489624" lon="12.459559749038599"><ele>33.42857142857143</ele><time>2026-04-28T18:08:54.998Z</time></trkpt><trkpt lat="45.93857102000891" lon="12.459474245232197"><ele>33.57142857142857</ele><time>2026-04-28T18:08:58Z</time></trkpt><trkpt lat="45.93852797511519" lon="12.45936366116363"><ele>33.714285714285715</ele><time>2026-04-28T18:09:14Z</time></trkpt><trkpt lat="45.93849849053151" lon="12.459283373480904"><ele>33.857142857142854</ele><time>2026-04-28T18:09:15Z</time></trkpt><trkpt lat="45.93853290339013" lon="12.459191303138155"><ele>34.0</ele><time>2026-04-28T18:09:18Z</time></trkpt><trkpt lat="45.93858593599877" lon="12.459112939248694"><ele>34.0</ele><time>2026-04-28T18:09:19Z</time></trkpt><trkpt lat="45.9386602297092" lon="12.458997358069752"><ele>34.0</ele><time>2026-04-28T18:09:20Z</time></trkpt><trkpt lat="45.93873757188633" lon="12.458879617648186"><ele>34.0</ele><time>2026-04-28T18:09:21Z</time></trkpt><trkpt lat="45.93883233133982" lon="12.458734473621755"><ele>34.0</ele><time>2026-04-28T18:09:22Z</time></trkpt><trkpt lat="45.938917023584004" lon="12.458608070852863"><ele>34.0</ele><time>2026-04-28T18:09:23Z</time></trkpt><trkpt lat="45.93900717066322" lon="12.458461539163224"><ele>34.0</ele><time>2026-04-28T18:09:24Z</time></trkpt><trkpt lat="45.939122438243864" lon="12.45828029309346"><ele>34.0</ele><time>2026-04-28T18:09:25Z</time></trkpt><trkpt lat="45.93924306410199" lon="12.458095297062423"><ele>34.25</ele><time>2026-04-28T18:09:26Z</time></trkpt><trkpt lat="45.939366571062386" lon="12.457909617847179"><ele>34.5</ele><time>2026-04-28T18:09:27Z</time></trkpt><trkpt lat="45.939454953600816" lon="12.457774695811404"><ele>34.75</ele><time>2026-04-28T18:09:28Z</time></trkpt><trkpt lat="45.9395244780644" lon="12.457663877682846"><ele>35.0</ele><time>2026-04-28T18:09:29Z</time></trkpt><trkpt lat="45.93959379419254" lon="12.457552564892174"><ele>35.0</ele><time>2026-04-28T18:09:30Z</time></trkpt><trkpt lat="45.939656421021425" lon="12.4574488388147"><ele>35.0</ele><time>2026-04-28T18:09:31Z</time></trkpt><trkpt lat="45.93970991513005" lon="12.457368897013144"><ele>35.0</ele><time>2026-04-28T18:09:32Z</time></trkpt><trkpt lat="45.93975486198157" lon="12.457294686498225"><ele>35.0</ele><time>2026-04-28T18:09:33Z</time></trkpt><trkpt lat="45.93985140521066" lon="12.45719061401068"><ele>35.0</ele><time>2026-04-28T18:09:35Z</time></trkpt><trkpt lat="45.939972088777104" lon="12.457092543532536"><ele>35.0</ele><time>2026-04-28T18:09:37Z</time></trkpt><trkpt lat="45.940040338958134" lon="12.45705117084984"><ele>35.0</ele><time>2026-04-28T18:09:38Z</time></trkpt><trkpt lat="45.940107720093074" lon="12.457014854743004"><ele>35.0</ele><time>2026-04-28T18:09:39Z</time></trkpt><trkpt lat="45.940168593464946" lon="12.456968628211483"><ele>35.0</ele><time>2026-04-28T18:09:39.999Z</time></trkpt><trkpt lat="45.940192828919805" lon="12.45687270063754"><ele>35.0</ele><time>2026-04-28T18:09:41.999Z</time></trkpt><trkpt lat="45.94025380545022" lon="12.456843839361358"><ele>35.0</ele><time>2026-04-28T18:09:42.999Z</time></trkpt><trkpt lat="45.94028964407207" lon="12.45665190800752"><ele>35.0</ele><time>2026-04-28T18:09:44.999Z</time></trkpt><trkpt lat="45.940342692817474" lon="12.456505278390983"><ele>35.0</ele><time>2026-04-28T18:09:45.999Z</time></trkpt><trkpt lat="45.940373152970636" lon="12.456398668958107"><ele>35.0</ele><time>2026-04-28T18:09:46.999Z</time></trkpt><trkpt lat="45.940393730706674" lon="12.45629573979822"><ele>35.0</ele><time>2026-04-28T18:09:47.999Z</time></trkpt><trkpt lat="45.94042532989207" lon="12.456200918456561"><ele>35.0</ele><time>2026-04-28T18:09:48.999Z</time></trkpt><trkpt lat="45.94047035203267" lon="12.456024072099703"><ele>35.0</ele><time>2026-04-28T18:09:50.999Z</time></trkpt><trkpt lat="45.94051252785687" lon="12.455888597481831"><ele>35.0</ele><time>2026-04-28T18:09:52.999Z</time></trkpt><trkpt lat="45.94057137771886" lon="12.455848057323783"><ele>35.0</ele><time>2026-04-28T18:10:06.999Z</time></trkpt><trkpt lat="45.94073252119255" lon="12.455933214955579"><ele>35.0</ele><time>2026-04-28T18:10:07.999Z</time></trkpt></trkseg></trk></gpx>